<?xml version="1.0" encoding="UTF-8" standalone="no" ?>
<gpx xmlns="http://www.topografix.com/GPX/1/1" xmlns:xsi="http://www.w3.org/2001/XMLSchema-instance" xsi:schemaLocation="http://www.topografix.com/GPX/1/1 http://www.topografix.com/GPX/1/1/gpx.xsd" version="1.1" creator="VisuGPX - https://www.visugpx.com">
  <metadata>
    <name>Bougarber</name>
    <desc><![CDATA[3 belles côtes, avec un superbe panorama sur 360°, à 10mn de Pau, sous les chênes, les châtaigniers et les eucalyptus.]]></desc>
  </metadata>
  <trk>
    <name><![CDATA[Tracé actuel: 20 MARS 2012 14:49]]></name>
    <trkseg>
      <trkpt lat="43.37356" lon="-0.48426">
        <ele>153.95</ele>
        <time>2012-03-20T13:49:50Z</time>
      </trkpt>
      <trkpt lat="43.37361" lon="-0.48412">
        <ele>162.12</ele>
        <time>2012-03-20T13:50:10Z</time>
      </trkpt>
      <trkpt lat="43.37369" lon="-0.48401">
        <ele>162.6</ele>
        <time>2012-03-20T13:50:19Z</time>
      </trkpt>
      <trkpt lat="43.37378" lon="-0.48391">
        <ele>163.08</ele>
        <time>2012-03-20T13:50:28Z</time>
      </trkpt>
      <trkpt lat="43.37389" lon="-0.48381">
        <ele>162.6</ele>
        <time>2012-03-20T13:50:39Z</time>
      </trkpt>
      <trkpt lat="43.37401" lon="-0.48373">
        <ele>163.08</ele>
        <time>2012-03-20T13:50:51Z</time>
      </trkpt>
      <trkpt lat="43.37413" lon="-0.48359">
        <ele>162.6</ele>
        <time>2012-03-20T13:51:02Z</time>
      </trkpt>
      <trkpt lat="43.37422" lon="-0.48349">
        <ele>163.08</ele>
        <time>2012-03-20T13:51:12Z</time>
      </trkpt>
      <trkpt lat="43.3743" lon="-0.48342">
        <ele>162.6</ele>
        <time>2012-03-20T13:51:21Z</time>
      </trkpt>
      <trkpt lat="43.37439" lon="-0.48336">
        <ele>162.6</ele>
        <time>2012-03-20T13:51:31Z</time>
      </trkpt>
      <trkpt lat="43.37448" lon="-0.4833">
        <ele>163.08</ele>
        <time>2012-03-20T13:51:38Z</time>
      </trkpt>
      <trkpt lat="43.37458" lon="-0.48323">
        <ele>163.08</ele>
        <time>2012-03-20T13:51:47Z</time>
      </trkpt>
      <trkpt lat="43.37469" lon="-0.48314">
        <ele>164.04</ele>
        <time>2012-03-20T13:51:58Z</time>
      </trkpt>
      <trkpt lat="43.37478" lon="-0.48305">
        <ele>165</ele>
        <time>2012-03-20T13:52:10Z</time>
      </trkpt>
      <trkpt lat="43.3749" lon="-0.483">
        <ele>165.48</ele>
        <time>2012-03-20T13:52:20Z</time>
      </trkpt>
      <trkpt lat="43.37502" lon="-0.48294">
        <ele>165.96</ele>
        <time>2012-03-20T13:52:30Z</time>
      </trkpt>
      <trkpt lat="43.37512" lon="-0.48287">
        <ele>166.93</ele>
        <time>2012-03-20T13:52:43Z</time>
      </trkpt>
      <trkpt lat="43.37524" lon="-0.48279">
        <ele>166.45</ele>
        <time>2012-03-20T13:52:55Z</time>
      </trkpt>
      <trkpt lat="43.37535" lon="-0.48272">
        <ele>166.45</ele>
        <time>2012-03-20T13:53:05Z</time>
      </trkpt>
      <trkpt lat="43.37547" lon="-0.48264">
        <ele>167.41</ele>
        <time>2012-03-20T13:53:15Z</time>
      </trkpt>
      <trkpt lat="43.37555" lon="-0.48254">
        <ele>166.93</ele>
        <time>2012-03-20T13:53:26Z</time>
      </trkpt>
      <trkpt lat="43.37567" lon="-0.48246">
        <ele>167.41</ele>
        <time>2012-03-20T13:53:36Z</time>
      </trkpt>
      <trkpt lat="43.37578" lon="-0.48241">
        <ele>167.89</ele>
        <time>2012-03-20T13:53:45Z</time>
      </trkpt>
      <trkpt lat="43.37587" lon="-0.48235">
        <ele>167.89</ele>
        <time>2012-03-20T13:53:54Z</time>
      </trkpt>
      <trkpt lat="43.37596" lon="-0.48233">
        <ele>168.85</ele>
        <time>2012-03-20T13:54:25Z</time>
      </trkpt>
      <trkpt lat="43.37604" lon="-0.48244">
        <ele>171.25</ele>
        <time>2012-03-20T13:54:37Z</time>
      </trkpt>
      <trkpt lat="43.37613" lon="-0.48258">
        <ele>173.17</ele>
        <time>2012-03-20T13:54:50Z</time>
      </trkpt>
      <trkpt lat="43.37617" lon="-0.48272">
        <ele>177.98</ele>
        <time>2012-03-20T13:55:27Z</time>
      </trkpt>
      <trkpt lat="43.37627" lon="-0.48289">
        <ele>181.35</ele>
        <time>2012-03-20T13:55:48Z</time>
      </trkpt>
      <trkpt lat="43.37635" lon="-0.48301">
        <ele>184.71</ele>
        <time>2012-03-20T13:56:18Z</time>
      </trkpt>
      <trkpt lat="43.37639" lon="-0.48319">
        <ele>194.8</ele>
        <time>2012-03-20T13:57:29Z</time>
      </trkpt>
      <trkpt lat="43.37645" lon="-0.4833">
        <ele>197.69</ele>
        <time>2012-03-20T13:58:01Z</time>
      </trkpt>
      <trkpt lat="43.37656" lon="-0.48353">
        <ele>200.57</ele>
        <time>2012-03-20T13:58:15Z</time>
      </trkpt>
      <trkpt lat="43.37657" lon="-0.48366">
        <ele>202.98</ele>
        <time>2012-03-20T13:58:31Z</time>
      </trkpt>
      <trkpt lat="43.37658" lon="-0.48379">
        <ele>205.38</ele>
        <time>2012-03-20T13:58:47Z</time>
      </trkpt>
      <trkpt lat="43.3766" lon="-0.48394">
        <ele>208.26</ele>
        <time>2012-03-20T13:59:01Z</time>
      </trkpt>
      <trkpt lat="43.37651" lon="-0.48405">
        <ele>209.22</ele>
        <time>2012-03-20T13:59:15Z</time>
      </trkpt>
      <trkpt lat="43.37654" lon="-0.48417">
        <ele>208.74</ele>
        <time>2012-03-20T14:00:08Z</time>
      </trkpt>
      <trkpt lat="43.37664" lon="-0.48418">
        <ele>209.22</ele>
        <time>2012-03-20T14:00:20Z</time>
      </trkpt>
      <trkpt lat="43.37673" lon="-0.48417">
        <ele>209.7</ele>
        <time>2012-03-20T14:00:29Z</time>
      </trkpt>
      <trkpt lat="43.37683" lon="-0.48414">
        <ele>210.67</ele>
        <time>2012-03-20T14:00:39Z</time>
      </trkpt>
      <trkpt lat="43.37693" lon="-0.48414">
        <ele>211.15</ele>
        <time>2012-03-20T14:00:49Z</time>
      </trkpt>
      <trkpt lat="43.37703" lon="-0.48413">
        <ele>211.63</ele>
        <time>2012-03-20T14:00:58Z</time>
      </trkpt>
      <trkpt lat="43.37713" lon="-0.48411">
        <ele>212.11</ele>
        <time>2012-03-20T14:01:07Z</time>
      </trkpt>
      <trkpt lat="43.37723" lon="-0.48411">
        <ele>212.11</ele>
        <time>2012-03-20T14:01:17Z</time>
      </trkpt>
      <trkpt lat="43.37734" lon="-0.4841">
        <ele>212.59</ele>
        <time>2012-03-20T14:01:29Z</time>
      </trkpt>
      <trkpt lat="43.37744" lon="-0.4841">
        <ele>213.55</ele>
        <time>2012-03-20T14:01:40Z</time>
      </trkpt>
      <trkpt lat="43.37754" lon="-0.48411">
        <ele>214.03</ele>
        <time>2012-03-20T14:01:51Z</time>
      </trkpt>
      <trkpt lat="43.37763" lon="-0.4841">
        <ele>214.99</ele>
        <time>2012-03-20T14:02:01Z</time>
      </trkpt>
      <trkpt lat="43.37774" lon="-0.48409">
        <ele>215.95</ele>
        <time>2012-03-20T14:02:12Z</time>
      </trkpt>
      <trkpt lat="43.37785" lon="-0.48406">
        <ele>217.4</ele>
        <time>2012-03-20T14:02:24Z</time>
      </trkpt>
      <trkpt lat="43.37796" lon="-0.48402">
        <ele>217.88</ele>
        <time>2012-03-20T14:02:35Z</time>
      </trkpt>
      <trkpt lat="43.37806" lon="-0.48399">
        <ele>218.84</ele>
        <time>2012-03-20T14:02:46Z</time>
      </trkpt>
      <trkpt lat="43.37817" lon="-0.48394">
        <ele>220.28</ele>
        <time>2012-03-20T14:02:59Z</time>
      </trkpt>
      <trkpt lat="43.37828" lon="-0.48394">
        <ele>220.76</ele>
        <time>2012-03-20T14:03:09Z</time>
      </trkpt>
      <trkpt lat="43.37837" lon="-0.48394">
        <ele>222.2</ele>
        <time>2012-03-20T14:03:21Z</time>
      </trkpt>
      <trkpt lat="43.37847" lon="-0.48394">
        <ele>223.16</ele>
        <time>2012-03-20T14:03:31Z</time>
      </trkpt>
      <trkpt lat="43.37858" lon="-0.48395">
        <ele>223.16</ele>
        <time>2012-03-20T14:03:41Z</time>
      </trkpt>
      <trkpt lat="43.37869" lon="-0.48396">
        <ele>224.12</ele>
        <time>2012-03-20T14:03:53Z</time>
      </trkpt>
      <trkpt lat="43.37883" lon="-0.48395">
        <ele>224.61</ele>
        <time>2012-03-20T14:04:05Z</time>
      </trkpt>
      <trkpt lat="43.37893" lon="-0.48393">
        <ele>225.57</ele>
        <time>2012-03-20T14:04:17Z</time>
      </trkpt>
      <trkpt lat="43.37904" lon="-0.48395">
        <ele>225.57</ele>
        <time>2012-03-20T14:04:29Z</time>
      </trkpt>
      <trkpt lat="43.37915" lon="-0.484">
        <ele>225.57</ele>
        <time>2012-03-20T14:04:39Z</time>
      </trkpt>
      <trkpt lat="43.37926" lon="-0.48405">
        <ele>226.05</ele>
        <time>2012-03-20T14:04:49Z</time>
      </trkpt>
      <trkpt lat="43.37935" lon="-0.48416">
        <ele>225.57</ele>
        <time>2012-03-20T14:04:59Z</time>
      </trkpt>
      <trkpt lat="43.37945" lon="-0.48423">
        <ele>226.53</ele>
        <time>2012-03-20T14:05:12Z</time>
      </trkpt>
      <trkpt lat="43.37955" lon="-0.4843">
        <ele>227.01</ele>
        <time>2012-03-20T14:05:24Z</time>
      </trkpt>
      <trkpt lat="43.37965" lon="-0.4843">
        <ele>227.97</ele>
        <time>2012-03-20T14:05:48Z</time>
      </trkpt>
      <trkpt lat="43.37983" lon="-0.48433">
        <ele>229.89</ele>
        <time>2012-03-20T14:06:18Z</time>
      </trkpt>
      <trkpt lat="43.37992" lon="-0.48429">
        <ele>230.85</ele>
        <time>2012-03-20T14:06:31Z</time>
      </trkpt>
      <trkpt lat="43.38019" lon="-0.48427">
        <ele>231.81</ele>
        <time>2012-03-20T14:06:47Z</time>
      </trkpt>
      <trkpt lat="43.3803" lon="-0.48425">
        <ele>232.78</ele>
        <time>2012-03-20T14:06:56Z</time>
      </trkpt>
      <trkpt lat="43.38041" lon="-0.48424">
        <ele>233.26</ele>
        <time>2012-03-20T14:07:03Z</time>
      </trkpt>
      <trkpt lat="43.38056" lon="-0.48423">
        <ele>234.22</ele>
        <time>2012-03-20T14:07:14Z</time>
      </trkpt>
      <trkpt lat="43.38069" lon="-0.48425">
        <ele>235.66</ele>
        <time>2012-03-20T14:07:25Z</time>
      </trkpt>
      <trkpt lat="43.38081" lon="-0.48425">
        <ele>237.1</ele>
        <time>2012-03-20T14:07:36Z</time>
      </trkpt>
      <trkpt lat="43.3809" lon="-0.4843">
        <ele>239.02</ele>
        <time>2012-03-20T14:07:51Z</time>
      </trkpt>
      <trkpt lat="43.38099" lon="-0.48435">
        <ele>238.06</ele>
        <time>2012-03-20T14:08:01Z</time>
      </trkpt>
      <trkpt lat="43.38113" lon="-0.48438">
        <ele>239.02</ele>
        <time>2012-03-20T14:08:21Z</time>
      </trkpt>
      <trkpt lat="43.38152" lon="-0.48452">
        <ele>237.58</ele>
        <time>2012-03-20T14:09:03Z</time>
      </trkpt>
      <trkpt lat="43.38187" lon="-0.4846">
        <ele>237.1</ele>
        <time>2012-03-20T14:09:24Z</time>
      </trkpt>
      <trkpt lat="43.38223" lon="-0.48464">
        <ele>235.66</ele>
        <time>2012-03-20T14:09:33Z</time>
      </trkpt>
      <trkpt lat="43.38235" lon="-0.48469">
        <ele>236.14</ele>
        <time>2012-03-20T14:09:41Z</time>
      </trkpt>
      <trkpt lat="43.38249" lon="-0.48473">
        <ele>236.62</ele>
        <time>2012-03-20T14:09:52Z</time>
      </trkpt>
      <trkpt lat="43.38258" lon="-0.4848">
        <ele>235.66</ele>
        <time>2012-03-20T14:10:05Z</time>
      </trkpt>
      <trkpt lat="43.38266" lon="-0.48488">
        <ele>236.14</ele>
        <time>2012-03-20T14:10:15Z</time>
      </trkpt>
      <trkpt lat="43.38277" lon="-0.48494">
        <ele>235.66</ele>
        <time>2012-03-20T14:10:23Z</time>
      </trkpt>
      <trkpt lat="43.38289" lon="-0.48502">
        <ele>236.14</ele>
        <time>2012-03-20T14:10:35Z</time>
      </trkpt>
      <trkpt lat="43.38302" lon="-0.48507">
        <ele>235.66</ele>
        <time>2012-03-20T14:10:46Z</time>
      </trkpt>
      <trkpt lat="43.38312" lon="-0.48512">
        <ele>235.66</ele>
        <time>2012-03-20T14:10:58Z</time>
      </trkpt>
      <trkpt lat="43.38327" lon="-0.48519">
        <ele>236.14</ele>
        <time>2012-03-20T14:11:16Z</time>
      </trkpt>
      <trkpt lat="43.38345" lon="-0.48527">
        <ele>236.14</ele>
        <time>2012-03-20T14:11:28Z</time>
      </trkpt>
      <trkpt lat="43.38355" lon="-0.48535">
        <ele>236.14</ele>
        <time>2012-03-20T14:11:38Z</time>
      </trkpt>
      <trkpt lat="43.38369" lon="-0.4854">
        <ele>236.14</ele>
        <time>2012-03-20T14:11:51Z</time>
      </trkpt>
      <trkpt lat="43.38382" lon="-0.48537">
        <ele>236.14</ele>
        <time>2012-03-20T14:12:05Z</time>
      </trkpt>
      <trkpt lat="43.38396" lon="-0.48534">
        <ele>236.14</ele>
        <time>2012-03-20T14:12:17Z</time>
      </trkpt>
      <trkpt lat="43.38408" lon="-0.4853">
        <ele>235.66</ele>
        <time>2012-03-20T14:12:27Z</time>
      </trkpt>
      <trkpt lat="43.38421" lon="-0.48528">
        <ele>236.62</ele>
        <time>2012-03-20T14:12:38Z</time>
      </trkpt>
      <trkpt lat="43.38437" lon="-0.48526">
        <ele>237.58</ele>
        <time>2012-03-20T14:12:53Z</time>
      </trkpt>
      <trkpt lat="43.38447" lon="-0.48524">
        <ele>238.06</ele>
        <time>2012-03-20T14:13:05Z</time>
      </trkpt>
      <trkpt lat="43.38459" lon="-0.48526">
        <ele>239.51</ele>
        <time>2012-03-20T14:13:17Z</time>
      </trkpt>
      <trkpt lat="43.38471" lon="-0.48532">
        <ele>239.99</ele>
        <time>2012-03-20T14:13:27Z</time>
      </trkpt>
      <trkpt lat="43.3848" lon="-0.48539">
        <ele>241.43</ele>
        <time>2012-03-20T14:13:38Z</time>
      </trkpt>
      <trkpt lat="43.38491" lon="-0.48543">
        <ele>242.87</ele>
        <time>2012-03-20T14:13:50Z</time>
      </trkpt>
      <trkpt lat="43.38503" lon="-0.48549">
        <ele>244.31</ele>
        <time>2012-03-20T14:14:02Z</time>
      </trkpt>
      <trkpt lat="43.38513" lon="-0.48555">
        <ele>244.79</ele>
        <time>2012-03-20T14:14:14Z</time>
      </trkpt>
      <trkpt lat="43.38523" lon="-0.48562">
        <ele>246.72</ele>
        <time>2012-03-20T14:14:26Z</time>
      </trkpt>
      <trkpt lat="43.38535" lon="-0.48569">
        <ele>247.68</ele>
        <time>2012-03-20T14:14:42Z</time>
      </trkpt>
      <trkpt lat="43.38544" lon="-0.48575">
        <ele>248.64</ele>
        <time>2012-03-20T14:14:51Z</time>
      </trkpt>
      <trkpt lat="43.38556" lon="-0.48579">
        <ele>250.08</ele>
        <time>2012-03-20T14:15:03Z</time>
      </trkpt>
      <trkpt lat="43.38569" lon="-0.48583">
        <ele>251.52</ele>
        <time>2012-03-20T14:15:15Z</time>
      </trkpt>
      <trkpt lat="43.3858" lon="-0.48589">
        <ele>252.48</ele>
        <time>2012-03-20T14:15:28Z</time>
      </trkpt>
      <trkpt lat="43.38587" lon="-0.48596">
        <ele>253.44</ele>
        <time>2012-03-20T14:15:50Z</time>
      </trkpt>
      <trkpt lat="43.38594" lon="-0.48603">
        <ele>253.93</ele>
        <time>2012-03-20T14:16:00Z</time>
      </trkpt>
      <trkpt lat="43.38601" lon="-0.48613">
        <ele>254.41</ele>
        <time>2012-03-20T14:16:10Z</time>
      </trkpt>
      <trkpt lat="43.38608" lon="-0.48622">
        <ele>255.37</ele>
        <time>2012-03-20T14:16:20Z</time>
      </trkpt>
      <trkpt lat="43.38615" lon="-0.48634">
        <ele>256.33</ele>
        <time>2012-03-20T14:16:31Z</time>
      </trkpt>
      <trkpt lat="43.38621" lon="-0.48645">
        <ele>257.29</ele>
        <time>2012-03-20T14:16:43Z</time>
      </trkpt>
      <trkpt lat="43.38626" lon="-0.48658">
        <ele>257.77</ele>
        <time>2012-03-20T14:16:56Z</time>
      </trkpt>
      <trkpt lat="43.38631" lon="-0.48671">
        <ele>257.77</ele>
        <time>2012-03-20T14:17:08Z</time>
      </trkpt>
      <trkpt lat="43.38631" lon="-0.48685">
        <ele>258.25</ele>
        <time>2012-03-20T14:17:18Z</time>
      </trkpt>
      <trkpt lat="43.38629" lon="-0.48699">
        <ele>258.25</ele>
        <time>2012-03-20T14:17:28Z</time>
      </trkpt>
      <trkpt lat="43.38627" lon="-0.48713">
        <ele>257.77</ele>
        <time>2012-03-20T14:17:40Z</time>
      </trkpt>
      <trkpt lat="43.38627" lon="-0.48729">
        <ele>257.77</ele>
        <time>2012-03-20T14:17:52Z</time>
      </trkpt>
      <trkpt lat="43.3863" lon="-0.4874">
        <ele>258.25</ele>
        <time>2012-03-20T14:18:04Z</time>
      </trkpt>
      <trkpt lat="43.3864" lon="-0.48735">
        <ele>258.73</ele>
        <time>2012-03-20T14:18:13Z</time>
      </trkpt>
      <trkpt lat="43.38647" lon="-0.48728">
        <ele>260.65</ele>
        <time>2012-03-20T14:19:48Z</time>
      </trkpt>
      <trkpt lat="43.38654" lon="-0.48719">
        <ele>261.14</ele>
        <time>2012-03-20T14:19:58Z</time>
      </trkpt>
      <trkpt lat="43.38662" lon="-0.48713">
        <ele>262.1</ele>
        <time>2012-03-20T14:21:39Z</time>
      </trkpt>
      <trkpt lat="43.3867" lon="-0.48705">
        <ele>262.58</ele>
        <time>2012-03-20T14:21:49Z</time>
      </trkpt>
      <trkpt lat="43.38679" lon="-0.48697">
        <ele>264.02</ele>
        <time>2012-03-20T14:22:01Z</time>
      </trkpt>
      <trkpt lat="43.38687" lon="-0.4869">
        <ele>264.5</ele>
        <time>2012-03-20T14:22:10Z</time>
      </trkpt>
      <trkpt lat="43.38696" lon="-0.48682">
        <ele>264.5</ele>
        <time>2012-03-20T14:22:19Z</time>
      </trkpt>
      <trkpt lat="43.38705" lon="-0.48676">
        <ele>264.98</ele>
        <time>2012-03-20T14:22:27Z</time>
      </trkpt>
      <trkpt lat="43.38714" lon="-0.48669">
        <ele>264.5</ele>
        <time>2012-03-20T14:22:35Z</time>
      </trkpt>
      <trkpt lat="43.38722" lon="-0.48661">
        <ele>264.5</ele>
        <time>2012-03-20T14:22:45Z</time>
      </trkpt>
      <trkpt lat="43.38726" lon="-0.48651">
        <ele>264.98</ele>
        <time>2012-03-20T14:22:54Z</time>
      </trkpt>
      <trkpt lat="43.3872" lon="-0.48641">
        <ele>265.46</ele>
        <time>2012-03-20T14:23:02Z</time>
      </trkpt>
      <trkpt lat="43.38712" lon="-0.48632">
        <ele>264.98</ele>
        <time>2012-03-20T14:23:10Z</time>
      </trkpt>
      <trkpt lat="43.38704" lon="-0.4862">
        <ele>265.46</ele>
        <time>2012-03-20T14:23:19Z</time>
      </trkpt>
      <trkpt lat="43.38696" lon="-0.4861">
        <ele>265.46</ele>
        <time>2012-03-20T14:23:29Z</time>
      </trkpt>
      <trkpt lat="43.3869" lon="-0.486">
        <ele>265.46</ele>
        <time>2012-03-20T14:23:39Z</time>
      </trkpt>
      <trkpt lat="43.38685" lon="-0.48589">
        <ele>265.46</ele>
        <time>2012-03-20T14:24:03Z</time>
      </trkpt>
      <trkpt lat="43.3868" lon="-0.48577">
        <ele>265.94</ele>
        <time>2012-03-20T14:24:13Z</time>
      </trkpt>
      <trkpt lat="43.38677" lon="-0.48562">
        <ele>266.42</ele>
        <time>2012-03-20T14:24:23Z</time>
      </trkpt>
      <trkpt lat="43.38674" lon="-0.48548">
        <ele>266.42</ele>
        <time>2012-03-20T14:24:34Z</time>
      </trkpt>
      <trkpt lat="43.38671" lon="-0.48533">
        <ele>266.42</ele>
        <time>2012-03-20T14:24:45Z</time>
      </trkpt>
      <trkpt lat="43.3867" lon="-0.48519">
        <ele>266.9</ele>
        <time>2012-03-20T14:24:54Z</time>
      </trkpt>
      <trkpt lat="43.38667" lon="-0.48506">
        <ele>266.9</ele>
        <time>2012-03-20T14:25:03Z</time>
      </trkpt>
      <trkpt lat="43.38664" lon="-0.48491">
        <ele>267.38</ele>
        <time>2012-03-20T14:25:13Z</time>
      </trkpt>
      <trkpt lat="43.38662" lon="-0.48476">
        <ele>267.38</ele>
        <time>2012-03-20T14:25:23Z</time>
      </trkpt>
      <trkpt lat="43.3866" lon="-0.4846">
        <ele>267.86</ele>
        <time>2012-03-20T14:25:34Z</time>
      </trkpt>
      <trkpt lat="43.38657" lon="-0.48445">
        <ele>268.35</ele>
        <time>2012-03-20T14:25:47Z</time>
      </trkpt>
      <trkpt lat="43.38656" lon="-0.48432">
        <ele>269.31</ele>
        <time>2012-03-20T14:26:28Z</time>
      </trkpt>
      <trkpt lat="43.38657" lon="-0.48419">
        <ele>269.31</ele>
        <time>2012-03-20T14:26:37Z</time>
      </trkpt>
      <trkpt lat="43.38655" lon="-0.48405">
        <ele>269.31</ele>
        <time>2012-03-20T14:26:47Z</time>
      </trkpt>
      <trkpt lat="43.38652" lon="-0.48391">
        <ele>268.35</ele>
        <time>2012-03-20T14:26:55Z</time>
      </trkpt>
      <trkpt lat="43.38651" lon="-0.48379">
        <ele>268.35</ele>
        <time>2012-03-20T14:27:04Z</time>
      </trkpt>
      <trkpt lat="43.38647" lon="-0.48366">
        <ele>268.83</ele>
        <time>2012-03-20T14:27:13Z</time>
      </trkpt>
      <trkpt lat="43.38643" lon="-0.48354">
        <ele>268.83</ele>
        <time>2012-03-20T14:27:22Z</time>
      </trkpt>
      <trkpt lat="43.38638" lon="-0.48342">
        <ele>268.35</ele>
        <time>2012-03-20T14:27:31Z</time>
      </trkpt>
      <trkpt lat="43.38632" lon="-0.48332">
        <ele>267.38</ele>
        <time>2012-03-20T14:27:40Z</time>
      </trkpt>
      <trkpt lat="43.38626" lon="-0.48322">
        <ele>267.86</ele>
        <time>2012-03-20T14:27:51Z</time>
      </trkpt>
      <trkpt lat="43.38621" lon="-0.48311">
        <ele>266.9</ele>
        <time>2012-03-20T14:28:03Z</time>
      </trkpt>
      <trkpt lat="43.38615" lon="-0.48301">
        <ele>266.9</ele>
        <time>2012-03-20T14:28:14Z</time>
      </trkpt>
      <trkpt lat="43.3861" lon="-0.4829">
        <ele>266.42</ele>
        <time>2012-03-20T14:28:23Z</time>
      </trkpt>
      <trkpt lat="43.38612" lon="-0.48278">
        <ele>265.94</ele>
        <time>2012-03-20T14:28:31Z</time>
      </trkpt>
      <trkpt lat="43.3862" lon="-0.48269">
        <ele>266.42</ele>
        <time>2012-03-20T14:28:38Z</time>
      </trkpt>
      <trkpt lat="43.38627" lon="-0.4826">
        <ele>266.42</ele>
        <time>2012-03-20T14:28:46Z</time>
      </trkpt>
      <trkpt lat="43.38634" lon="-0.48251">
        <ele>266.9</ele>
        <time>2012-03-20T14:28:54Z</time>
      </trkpt>
      <trkpt lat="43.38642" lon="-0.48243">
        <ele>265.94</ele>
        <time>2012-03-20T14:29:02Z</time>
      </trkpt>
      <trkpt lat="43.38649" lon="-0.48234">
        <ele>266.42</ele>
        <time>2012-03-20T14:29:10Z</time>
      </trkpt>
      <trkpt lat="43.38655" lon="-0.48225">
        <ele>265.46</ele>
        <time>2012-03-20T14:29:18Z</time>
      </trkpt>
      <trkpt lat="43.38662" lon="-0.48216">
        <ele>264.5</ele>
        <time>2012-03-20T14:29:26Z</time>
      </trkpt>
      <trkpt lat="43.3867" lon="-0.48208">
        <ele>264.02</ele>
        <time>2012-03-20T14:29:33Z</time>
      </trkpt>
      <trkpt lat="43.38677" lon="-0.48199">
        <ele>262.58</ele>
        <time>2012-03-20T14:29:41Z</time>
      </trkpt>
      <trkpt lat="43.38684" lon="-0.48191">
        <ele>262.1</ele>
        <time>2012-03-20T14:29:48Z</time>
      </trkpt>
      <trkpt lat="43.38686" lon="-0.48178">
        <ele>262.1</ele>
        <time>2012-03-20T14:29:56Z</time>
      </trkpt>
      <trkpt lat="43.38678" lon="-0.48165">
        <ele>261.62</ele>
        <time>2012-03-20T14:30:04Z</time>
      </trkpt>
      <trkpt lat="43.38673" lon="-0.48152">
        <ele>262.58</ele>
        <time>2012-03-20T14:30:12Z</time>
      </trkpt>
      <trkpt lat="43.38668" lon="-0.48139">
        <ele>263.06</ele>
        <time>2012-03-20T14:30:21Z</time>
      </trkpt>
      <trkpt lat="43.38662" lon="-0.48127">
        <ele>263.06</ele>
        <time>2012-03-20T14:30:29Z</time>
      </trkpt>
      <trkpt lat="43.38658" lon="-0.48115">
        <ele>262.58</ele>
        <time>2012-03-20T14:30:37Z</time>
      </trkpt>
      <trkpt lat="43.38655" lon="-0.48102">
        <ele>262.1</ele>
        <time>2012-03-20T14:30:46Z</time>
      </trkpt>
      <trkpt lat="43.38661" lon="-0.48094">
        <ele>261.14</ele>
        <time>2012-03-20T14:30:55Z</time>
      </trkpt>
      <trkpt lat="43.38671" lon="-0.48089">
        <ele>260.17</ele>
        <time>2012-03-20T14:31:04Z</time>
      </trkpt>
      <trkpt lat="43.3868" lon="-0.48083">
        <ele>258.25</ele>
        <time>2012-03-20T14:31:13Z</time>
      </trkpt>
      <trkpt lat="43.38689" lon="-0.48077">
        <ele>257.77</ele>
        <time>2012-03-20T14:31:22Z</time>
      </trkpt>
      <trkpt lat="43.38698" lon="-0.48071">
        <ele>256.81</ele>
        <time>2012-03-20T14:31:31Z</time>
      </trkpt>
      <trkpt lat="43.38708" lon="-0.48065">
        <ele>255.37</ele>
        <time>2012-03-20T14:31:40Z</time>
      </trkpt>
      <trkpt lat="43.38715" lon="-0.48056">
        <ele>254.41</ele>
        <time>2012-03-20T14:31:48Z</time>
      </trkpt>
      <trkpt lat="43.38721" lon="-0.48047">
        <ele>253.44</ele>
        <time>2012-03-20T14:31:57Z</time>
      </trkpt>
      <trkpt lat="43.38728" lon="-0.48039">
        <ele>253.44</ele>
        <time>2012-03-20T14:32:05Z</time>
      </trkpt>
      <trkpt lat="43.38736" lon="-0.48031">
        <ele>252.96</ele>
        <time>2012-03-20T14:32:14Z</time>
      </trkpt>
      <trkpt lat="43.38745" lon="-0.48024">
        <ele>251.52</ele>
        <time>2012-03-20T14:32:23Z</time>
      </trkpt>
      <trkpt lat="43.38755" lon="-0.48018">
        <ele>250.56</ele>
        <time>2012-03-20T14:32:32Z</time>
      </trkpt>
      <trkpt lat="43.38764" lon="-0.48011">
        <ele>250.08</ele>
        <time>2012-03-20T14:32:41Z</time>
      </trkpt>
      <trkpt lat="43.38774" lon="-0.48002">
        <ele>248.64</ele>
        <time>2012-03-20T14:32:51Z</time>
      </trkpt>
      <trkpt lat="43.38784" lon="-0.47993">
        <ele>248.16</ele>
        <time>2012-03-20T14:33:02Z</time>
      </trkpt>
      <trkpt lat="43.38792" lon="-0.47983">
        <ele>246.72</ele>
        <time>2012-03-20T14:33:12Z</time>
      </trkpt>
      <trkpt lat="43.38799" lon="-0.47972">
        <ele>244.79</ele>
        <time>2012-03-20T14:33:22Z</time>
      </trkpt>
      <trkpt lat="43.38805" lon="-0.47962">
        <ele>244.31</ele>
        <time>2012-03-20T14:33:30Z</time>
      </trkpt>
      <trkpt lat="43.38811" lon="-0.47951">
        <ele>242.87</ele>
        <time>2012-03-20T14:33:39Z</time>
      </trkpt>
      <trkpt lat="43.38817" lon="-0.4794">
        <ele>241.43</ele>
        <time>2012-03-20T14:33:47Z</time>
      </trkpt>
      <trkpt lat="43.38822" lon="-0.47929">
        <ele>241.43</ele>
        <time>2012-03-20T14:33:55Z</time>
      </trkpt>
      <trkpt lat="43.38827" lon="-0.47916">
        <ele>240.95</ele>
        <time>2012-03-20T14:34:03Z</time>
      </trkpt>
      <trkpt lat="43.3883" lon="-0.47904">
        <ele>239.51</ele>
        <time>2012-03-20T14:34:12Z</time>
      </trkpt>
      <trkpt lat="43.38834" lon="-0.47892">
        <ele>238.54</ele>
        <time>2012-03-20T14:34:20Z</time>
      </trkpt>
      <trkpt lat="43.38837" lon="-0.47879">
        <ele>238.06</ele>
        <time>2012-03-20T14:34:29Z</time>
      </trkpt>
      <trkpt lat="43.38833" lon="-0.4787">
        <ele>237.1</ele>
        <time>2012-03-20T14:34:55Z</time>
      </trkpt>
      <trkpt lat="43.38836" lon="-0.47869">
        <ele>237.1</ele>
        <time>2012-03-20T14:36:09Z</time>
      </trkpt>
      <trkpt lat="43.3884" lon="-0.47869">
        <ele>237.58</ele>
        <time>2012-03-20T14:36:23Z</time>
      </trkpt>
      <trkpt lat="43.38844" lon="-0.4786">
        <ele>237.1</ele>
        <time>2012-03-20T14:36:31Z</time>
      </trkpt>
      <trkpt lat="43.38849" lon="-0.4785">
        <ele>235.66</ele>
        <time>2012-03-20T14:36:40Z</time>
      </trkpt>
      <trkpt lat="43.38855" lon="-0.4784">
        <ele>235.66</ele>
        <time>2012-03-20T14:36:50Z</time>
      </trkpt>
      <trkpt lat="43.3886" lon="-0.4783">
        <ele>234.22</ele>
        <time>2012-03-20T14:36:59Z</time>
      </trkpt>
      <trkpt lat="43.38866" lon="-0.47819">
        <ele>233.74</ele>
        <time>2012-03-20T14:37:09Z</time>
      </trkpt>
      <trkpt lat="43.38871" lon="-0.47808">
        <ele>232.78</ele>
        <time>2012-03-20T14:37:19Z</time>
      </trkpt>
      <trkpt lat="43.38876" lon="-0.47798">
        <ele>231.81</ele>
        <time>2012-03-20T14:37:32Z</time>
      </trkpt>
      <trkpt lat="43.38876" lon="-0.47793">
        <ele>231.81</ele>
        <time>2012-03-20T14:38:35Z</time>
      </trkpt>
      <trkpt lat="43.38878" lon="-0.4779">
        <ele>230.85</ele>
        <time>2012-03-20T14:39:59Z</time>
      </trkpt>
      <trkpt lat="43.38884" lon="-0.47778">
        <ele>229.89</ele>
        <time>2012-03-20T14:40:07Z</time>
      </trkpt>
      <trkpt lat="43.38891" lon="-0.47769">
        <ele>229.41</ele>
        <time>2012-03-20T14:40:16Z</time>
      </trkpt>
      <trkpt lat="43.38906" lon="-0.47766">
        <ele>228.45</ele>
        <time>2012-03-20T14:40:27Z</time>
      </trkpt>
      <trkpt lat="43.38917" lon="-0.47763">
        <ele>226.53</ele>
        <time>2012-03-20T14:40:36Z</time>
      </trkpt>
      <trkpt lat="43.38925" lon="-0.47756">
        <ele>224.61</ele>
        <time>2012-03-20T14:40:45Z</time>
      </trkpt>
      <trkpt lat="43.3893" lon="-0.47746">
        <ele>223.16</ele>
        <time>2012-03-20T14:40:54Z</time>
      </trkpt>
      <trkpt lat="43.38936" lon="-0.47735">
        <ele>221.24</ele>
        <time>2012-03-20T14:41:05Z</time>
      </trkpt>
      <trkpt lat="43.3894" lon="-0.47723">
        <ele>219.32</ele>
        <time>2012-03-20T14:41:15Z</time>
      </trkpt>
      <trkpt lat="43.38944" lon="-0.47711">
        <ele>217.4</ele>
        <time>2012-03-20T14:41:25Z</time>
      </trkpt>
      <trkpt lat="43.38948" lon="-0.47699">
        <ele>214.51</ele>
        <time>2012-03-20T14:41:35Z</time>
      </trkpt>
      <trkpt lat="43.38955" lon="-0.4769">
        <ele>213.55</ele>
        <time>2012-03-20T14:41:44Z</time>
      </trkpt>
      <trkpt lat="43.38962" lon="-0.47682">
        <ele>210.67</ele>
        <time>2012-03-20T14:41:53Z</time>
      </trkpt>
      <trkpt lat="43.3897" lon="-0.47674">
        <ele>208.74</ele>
        <time>2012-03-20T14:42:02Z</time>
      </trkpt>
      <trkpt lat="43.38978" lon="-0.47665">
        <ele>206.34</ele>
        <time>2012-03-20T14:42:11Z</time>
      </trkpt>
      <trkpt lat="43.38981" lon="-0.47654">
        <ele>203.46</ele>
        <time>2012-03-20T14:42:36Z</time>
      </trkpt>
      <trkpt lat="43.38981" lon="-0.4764">
        <ele>201.05</ele>
        <time>2012-03-20T14:42:48Z</time>
      </trkpt>
      <trkpt lat="43.38979" lon="-0.4763">
        <ele>199.61</ele>
        <time>2012-03-20T14:43:10Z</time>
      </trkpt>
      <trkpt lat="43.3899" lon="-0.47637">
        <ele>199.61</ele>
        <time>2012-03-20T14:43:19Z</time>
      </trkpt>
      <trkpt lat="43.39001" lon="-0.47644">
        <ele>199.13</ele>
        <time>2012-03-20T14:43:29Z</time>
      </trkpt>
      <trkpt lat="43.39011" lon="-0.4765">
        <ele>199.13</ele>
        <time>2012-03-20T14:43:38Z</time>
      </trkpt>
      <trkpt lat="43.39021" lon="-0.47657">
        <ele>199.61</ele>
        <time>2012-03-20T14:43:47Z</time>
      </trkpt>
      <trkpt lat="43.39031" lon="-0.47664">
        <ele>199.61</ele>
        <time>2012-03-20T14:43:56Z</time>
      </trkpt>
      <trkpt lat="43.39039" lon="-0.4767">
        <ele>200.09</ele>
        <time>2012-03-20T14:44:04Z</time>
      </trkpt>
      <trkpt lat="43.39047" lon="-0.47676">
        <ele>200.09</ele>
        <time>2012-03-20T14:44:13Z</time>
      </trkpt>
      <trkpt lat="43.39057" lon="-0.47682">
        <ele>199.61</ele>
        <time>2012-03-20T14:44:22Z</time>
      </trkpt>
      <trkpt lat="43.39065" lon="-0.47688">
        <ele>200.09</ele>
        <time>2012-03-20T14:44:30Z</time>
      </trkpt>
      <trkpt lat="43.39074" lon="-0.47694">
        <ele>199.61</ele>
        <time>2012-03-20T14:44:40Z</time>
      </trkpt>
      <trkpt lat="43.39083" lon="-0.477">
        <ele>199.13</ele>
        <time>2012-03-20T14:44:49Z</time>
      </trkpt>
      <trkpt lat="43.39091" lon="-0.47709">
        <ele>198.65</ele>
        <time>2012-03-20T14:44:59Z</time>
      </trkpt>
      <trkpt lat="43.391" lon="-0.47717">
        <ele>197.69</ele>
        <time>2012-03-20T14:45:19Z</time>
      </trkpt>
      <trkpt lat="43.3911" lon="-0.47725">
        <ele>196.25</ele>
        <time>2012-03-20T14:45:29Z</time>
      </trkpt>
      <trkpt lat="43.39119" lon="-0.47734">
        <ele>195.28</ele>
        <time>2012-03-20T14:45:40Z</time>
      </trkpt>
      <trkpt lat="43.39131" lon="-0.47742">
        <ele>194.32</ele>
        <time>2012-03-20T14:45:51Z</time>
      </trkpt>
      <trkpt lat="43.39139" lon="-0.47752">
        <ele>192.88</ele>
        <time>2012-03-20T14:46:03Z</time>
      </trkpt>
      <trkpt lat="43.39148" lon="-0.47759">
        <ele>191.44</ele>
        <time>2012-03-20T14:46:13Z</time>
      </trkpt>
      <trkpt lat="43.39155" lon="-0.47767">
        <ele>189.04</ele>
        <time>2012-03-20T14:46:27Z</time>
      </trkpt>
      <trkpt lat="43.39165" lon="-0.47777">
        <ele>187.59</ele>
        <time>2012-03-20T14:46:41Z</time>
      </trkpt>
      <trkpt lat="43.39177" lon="-0.47777">
        <ele>185.67</ele>
        <time>2012-03-20T14:46:53Z</time>
      </trkpt>
      <trkpt lat="43.3919" lon="-0.47775">
        <ele>184.23</ele>
        <time>2012-03-20T14:47:05Z</time>
      </trkpt>
      <trkpt lat="43.392" lon="-0.47778">
        <ele>183.75</ele>
        <time>2012-03-20T14:47:16Z</time>
      </trkpt>
      <trkpt lat="43.3921" lon="-0.4778">
        <ele>183.75</ele>
        <time>2012-03-20T14:47:25Z</time>
      </trkpt>
      <trkpt lat="43.39219" lon="-0.47786">
        <ele>183.75</ele>
        <time>2012-03-20T14:47:35Z</time>
      </trkpt>
      <trkpt lat="43.39229" lon="-0.47791">
        <ele>183.75</ele>
        <time>2012-03-20T14:47:45Z</time>
      </trkpt>
      <trkpt lat="43.39239" lon="-0.47795">
        <ele>184.23</ele>
        <time>2012-03-20T14:47:55Z</time>
      </trkpt>
      <trkpt lat="43.39244" lon="-0.47807">
        <ele>185.67</ele>
        <time>2012-03-20T14:48:06Z</time>
      </trkpt>
      <trkpt lat="43.3924" lon="-0.47819">
        <ele>186.15</ele>
        <time>2012-03-20T14:48:15Z</time>
      </trkpt>
      <trkpt lat="43.39235" lon="-0.47831">
        <ele>186.63</ele>
        <time>2012-03-20T14:48:24Z</time>
      </trkpt>
      <trkpt lat="43.39229" lon="-0.47845">
        <ele>187.11</ele>
        <time>2012-03-20T14:48:33Z</time>
      </trkpt>
      <trkpt lat="43.39224" lon="-0.47856">
        <ele>187.11</ele>
        <time>2012-03-20T14:48:41Z</time>
      </trkpt>
      <trkpt lat="43.39221" lon="-0.47867">
        <ele>187.59</ele>
        <time>2012-03-20T14:48:49Z</time>
      </trkpt>
      <trkpt lat="43.39218" lon="-0.47879">
        <ele>188.08</ele>
        <time>2012-03-20T14:48:57Z</time>
      </trkpt>
      <trkpt lat="43.39216" lon="-0.47892">
        <ele>188.56</ele>
        <time>2012-03-20T14:49:06Z</time>
      </trkpt>
      <trkpt lat="43.39213" lon="-0.47906">
        <ele>189.52</ele>
        <time>2012-03-20T14:49:15Z</time>
      </trkpt>
      <trkpt lat="43.39208" lon="-0.47921">
        <ele>190.96</ele>
        <time>2012-03-20T14:49:25Z</time>
      </trkpt>
      <trkpt lat="43.39204" lon="-0.47932">
        <ele>191.92</ele>
        <time>2012-03-20T14:49:35Z</time>
      </trkpt>
      <trkpt lat="43.39202" lon="-0.47944">
        <ele>193.84</ele>
        <time>2012-03-20T14:49:46Z</time>
      </trkpt>
      <trkpt lat="43.39196" lon="-0.47955">
        <ele>194.8</ele>
        <time>2012-03-20T14:49:57Z</time>
      </trkpt>
      <trkpt lat="43.3919" lon="-0.47963">
        <ele>196.25</ele>
        <time>2012-03-20T14:50:08Z</time>
      </trkpt>
      <trkpt lat="43.39184" lon="-0.47972">
        <ele>197.69</ele>
        <time>2012-03-20T14:50:18Z</time>
      </trkpt>
      <trkpt lat="43.39181" lon="-0.47984">
        <ele>198.65</ele>
        <time>2012-03-20T14:50:28Z</time>
      </trkpt>
      <trkpt lat="43.39178" lon="-0.47995">
        <ele>200.57</ele>
        <time>2012-03-20T14:50:40Z</time>
      </trkpt>
      <trkpt lat="43.39173" lon="-0.48007">
        <ele>202.49</ele>
        <time>2012-03-20T14:50:51Z</time>
      </trkpt>
      <trkpt lat="43.3917" lon="-0.4802">
        <ele>204.42</ele>
        <time>2012-03-20T14:50:59Z</time>
      </trkpt>
      <trkpt lat="43.39167" lon="-0.48033">
        <ele>205.86</ele>
        <time>2012-03-20T14:51:07Z</time>
      </trkpt>
      <trkpt lat="43.39162" lon="-0.48046">
        <ele>207.78</ele>
        <time>2012-03-20T14:51:16Z</time>
      </trkpt>
      <trkpt lat="43.39157" lon="-0.48059">
        <ele>209.7</ele>
        <time>2012-03-20T14:51:26Z</time>
      </trkpt>
      <trkpt lat="43.39153" lon="-0.48074">
        <ele>212.11</ele>
        <time>2012-03-20T14:51:37Z</time>
      </trkpt>
      <trkpt lat="43.3915" lon="-0.48086">
        <ele>214.99</ele>
        <time>2012-03-20T14:51:49Z</time>
      </trkpt>
      <trkpt lat="43.39148" lon="-0.481">
        <ele>216.91</ele>
        <time>2012-03-20T14:51:59Z</time>
      </trkpt>
      <trkpt lat="43.39144" lon="-0.48113">
        <ele>218.84</ele>
        <time>2012-03-20T14:52:09Z</time>
      </trkpt>
      <trkpt lat="43.39141" lon="-0.48127">
        <ele>221.24</ele>
        <time>2012-03-20T14:52:19Z</time>
      </trkpt>
      <trkpt lat="43.39137" lon="-0.48139">
        <ele>223.16</ele>
        <time>2012-03-20T14:52:29Z</time>
      </trkpt>
      <trkpt lat="43.39131" lon="-0.48149">
        <ele>224.61</ele>
        <time>2012-03-20T14:52:38Z</time>
      </trkpt>
      <trkpt lat="43.39125" lon="-0.48159">
        <ele>227.01</ele>
        <time>2012-03-20T14:52:48Z</time>
      </trkpt>
      <trkpt lat="43.39119" lon="-0.48169">
        <ele>228.45</ele>
        <time>2012-03-20T14:52:57Z</time>
      </trkpt>
      <trkpt lat="43.39113" lon="-0.48179">
        <ele>229.89</ele>
        <time>2012-03-20T14:53:06Z</time>
      </trkpt>
      <trkpt lat="43.39107" lon="-0.48189">
        <ele>230.85</ele>
        <time>2012-03-20T14:53:15Z</time>
      </trkpt>
      <trkpt lat="43.39103" lon="-0.482">
        <ele>232.78</ele>
        <time>2012-03-20T14:53:24Z</time>
      </trkpt>
      <trkpt lat="43.39098" lon="-0.48212">
        <ele>233.74</ele>
        <time>2012-03-20T14:53:32Z</time>
      </trkpt>
      <trkpt lat="43.39093" lon="-0.48224">
        <ele>235.18</ele>
        <time>2012-03-20T14:53:41Z</time>
      </trkpt>
      <trkpt lat="43.39088" lon="-0.48236">
        <ele>237.1</ele>
        <time>2012-03-20T14:53:52Z</time>
      </trkpt>
      <trkpt lat="43.39083" lon="-0.48249">
        <ele>239.51</ele>
        <time>2012-03-20T14:54:04Z</time>
      </trkpt>
      <trkpt lat="43.39077" lon="-0.48261">
        <ele>241.91</ele>
        <time>2012-03-20T14:54:14Z</time>
      </trkpt>
      <trkpt lat="43.39071" lon="-0.48271">
        <ele>242.87</ele>
        <time>2012-03-20T14:54:24Z</time>
      </trkpt>
      <trkpt lat="43.39062" lon="-0.48278">
        <ele>244.79</ele>
        <time>2012-03-20T14:54:34Z</time>
      </trkpt>
      <trkpt lat="43.39052" lon="-0.4828">
        <ele>246.72</ele>
        <time>2012-03-20T14:54:44Z</time>
      </trkpt>
      <trkpt lat="43.39042" lon="-0.48281">
        <ele>248.64</ele>
        <time>2012-03-20T14:54:55Z</time>
      </trkpt>
      <trkpt lat="43.39034" lon="-0.48278">
        <ele>250.56</ele>
        <time>2012-03-20T14:55:06Z</time>
      </trkpt>
      <trkpt lat="43.3903" lon="-0.48276">
        <ele>252</ele>
        <time>2012-03-20T15:00:18Z</time>
      </trkpt>
      <trkpt lat="43.39023" lon="-0.48286">
        <ele>252.96</ele>
        <time>2012-03-20T15:00:48Z</time>
      </trkpt>
      <trkpt lat="43.39016" lon="-0.48295">
        <ele>254.89</ele>
        <time>2012-03-20T15:01:01Z</time>
      </trkpt>
      <trkpt lat="43.3901" lon="-0.48304">
        <ele>255.37</ele>
        <time>2012-03-20T15:02:13Z</time>
      </trkpt>
      <trkpt lat="43.39004" lon="-0.48315">
        <ele>256.81</ele>
        <time>2012-03-20T15:02:30Z</time>
      </trkpt>
      <trkpt lat="43.38998" lon="-0.48325">
        <ele>257.77</ele>
        <time>2012-03-20T15:02:44Z</time>
      </trkpt>
      <trkpt lat="43.38992" lon="-0.48335">
        <ele>258.73</ele>
        <time>2012-03-20T15:02:57Z</time>
      </trkpt>
      <trkpt lat="43.38985" lon="-0.48346">
        <ele>259.21</ele>
        <time>2012-03-20T15:03:10Z</time>
      </trkpt>
      <trkpt lat="43.38978" lon="-0.48355">
        <ele>260.17</ele>
        <time>2012-03-20T15:03:23Z</time>
      </trkpt>
      <trkpt lat="43.38969" lon="-0.48365">
        <ele>260.17</ele>
        <time>2012-03-20T15:03:35Z</time>
      </trkpt>
      <trkpt lat="43.38962" lon="-0.48377">
        <ele>260.65</ele>
        <time>2012-03-20T15:03:46Z</time>
      </trkpt>
      <trkpt lat="43.38953" lon="-0.48386">
        <ele>260.65</ele>
        <time>2012-03-20T15:03:56Z</time>
      </trkpt>
      <trkpt lat="43.38944" lon="-0.48395">
        <ele>260.65</ele>
        <time>2012-03-20T15:04:04Z</time>
      </trkpt>
      <trkpt lat="43.38937" lon="-0.48402">
        <ele>260.17</ele>
        <time>2012-03-20T15:04:12Z</time>
      </trkpt>
      <trkpt lat="43.38929" lon="-0.48411">
        <ele>260.65</ele>
        <time>2012-03-20T15:04:20Z</time>
      </trkpt>
      <trkpt lat="43.38921" lon="-0.4842">
        <ele>260.65</ele>
        <time>2012-03-20T15:04:29Z</time>
      </trkpt>
      <trkpt lat="43.38914" lon="-0.48429">
        <ele>261.14</ele>
        <time>2012-03-20T15:04:38Z</time>
      </trkpt>
      <trkpt lat="43.38906" lon="-0.48438">
        <ele>261.14</ele>
        <time>2012-03-20T15:04:47Z</time>
      </trkpt>
      <trkpt lat="43.38898" lon="-0.48446">
        <ele>261.62</ele>
        <time>2012-03-20T15:04:55Z</time>
      </trkpt>
      <trkpt lat="43.38891" lon="-0.48454">
        <ele>262.1</ele>
        <time>2012-03-20T15:05:03Z</time>
      </trkpt>
      <trkpt lat="43.38884" lon="-0.48463">
        <ele>262.58</ele>
        <time>2012-03-20T15:05:11Z</time>
      </trkpt>
      <trkpt lat="43.38876" lon="-0.48469">
        <ele>262.58</ele>
        <time>2012-03-20T15:05:19Z</time>
      </trkpt>
      <trkpt lat="43.38869" lon="-0.48478">
        <ele>263.54</ele>
        <time>2012-03-20T15:05:27Z</time>
      </trkpt>
      <trkpt lat="43.38861" lon="-0.48487">
        <ele>264.02</ele>
        <time>2012-03-20T15:05:36Z</time>
      </trkpt>
      <trkpt lat="43.38854" lon="-0.48496">
        <ele>264.5</ele>
        <time>2012-03-20T15:05:45Z</time>
      </trkpt>
      <trkpt lat="43.38848" lon="-0.48504">
        <ele>264.98</ele>
        <time>2012-03-20T15:05:53Z</time>
      </trkpt>
      <trkpt lat="43.3884" lon="-0.48512">
        <ele>264.98</ele>
        <time>2012-03-20T15:06:02Z</time>
      </trkpt>
      <trkpt lat="43.38834" lon="-0.48521">
        <ele>265.94</ele>
        <time>2012-03-20T15:06:10Z</time>
      </trkpt>
      <trkpt lat="43.38826" lon="-0.48529">
        <ele>265.94</ele>
        <time>2012-03-20T15:06:18Z</time>
      </trkpt>
      <trkpt lat="43.38819" lon="-0.48538">
        <ele>266.42</ele>
        <time>2012-03-20T15:06:26Z</time>
      </trkpt>
      <trkpt lat="43.38813" lon="-0.48546">
        <ele>266.9</ele>
        <time>2012-03-20T15:06:33Z</time>
      </trkpt>
      <trkpt lat="43.38806" lon="-0.48554">
        <ele>266.9</ele>
        <time>2012-03-20T15:06:41Z</time>
      </trkpt>
      <trkpt lat="43.38799" lon="-0.48562">
        <ele>266.9</ele>
        <time>2012-03-20T15:06:48Z</time>
      </trkpt>
      <trkpt lat="43.38792" lon="-0.4857">
        <ele>267.38</ele>
        <time>2012-03-20T15:06:55Z</time>
      </trkpt>
      <trkpt lat="43.38784" lon="-0.48579">
        <ele>266.9</ele>
        <time>2012-03-20T15:07:03Z</time>
      </trkpt>
      <trkpt lat="43.38777" lon="-0.48587">
        <ele>266.9</ele>
        <time>2012-03-20T15:07:10Z</time>
      </trkpt>
      <trkpt lat="43.38769" lon="-0.48595">
        <ele>267.38</ele>
        <time>2012-03-20T15:07:18Z</time>
      </trkpt>
      <trkpt lat="43.38763" lon="-0.48602">
        <ele>267.38</ele>
        <time>2012-03-20T15:07:25Z</time>
      </trkpt>
      <trkpt lat="43.38755" lon="-0.48611">
        <ele>267.38</ele>
        <time>2012-03-20T15:07:33Z</time>
      </trkpt>
      <trkpt lat="43.38748" lon="-0.48619">
        <ele>267.38</ele>
        <time>2012-03-20T15:07:41Z</time>
      </trkpt>
      <trkpt lat="43.38741" lon="-0.48629">
        <ele>267.86</ele>
        <time>2012-03-20T15:07:49Z</time>
      </trkpt>
      <trkpt lat="43.38735" lon="-0.48639">
        <ele>268.83</ele>
        <time>2012-03-20T15:07:57Z</time>
      </trkpt>
      <trkpt lat="43.38728" lon="-0.48648">
        <ele>268.83</ele>
        <time>2012-03-20T15:08:05Z</time>
      </trkpt>
      <trkpt lat="43.38721" lon="-0.48657">
        <ele>269.31</ele>
        <time>2012-03-20T15:08:13Z</time>
      </trkpt>
      <trkpt lat="43.38715" lon="-0.48665">
        <ele>269.31</ele>
        <time>2012-03-20T15:08:21Z</time>
      </trkpt>
      <trkpt lat="43.38706" lon="-0.48672">
        <ele>269.31</ele>
        <time>2012-03-20T15:08:29Z</time>
      </trkpt>
      <trkpt lat="43.38698" lon="-0.48679">
        <ele>269.79</ele>
        <time>2012-03-20T15:08:37Z</time>
      </trkpt>
      <trkpt lat="43.3869" lon="-0.48686">
        <ele>269.79</ele>
        <time>2012-03-20T15:08:45Z</time>
      </trkpt>
      <trkpt lat="43.38682" lon="-0.48692">
        <ele>268.83</ele>
        <time>2012-03-20T15:08:52Z</time>
      </trkpt>
      <trkpt lat="43.38674" lon="-0.48698">
        <ele>268.35</ele>
        <time>2012-03-20T15:09:00Z</time>
      </trkpt>
      <trkpt lat="43.38667" lon="-0.48705">
        <ele>267.86</ele>
        <time>2012-03-20T15:09:09Z</time>
      </trkpt>
      <trkpt lat="43.38663" lon="-0.48716">
        <ele>267.38</ele>
        <time>2012-03-20T15:09:19Z</time>
      </trkpt>
      <trkpt lat="43.38671" lon="-0.48725">
        <ele>267.38</ele>
        <time>2012-03-20T15:09:43Z</time>
      </trkpt>
      <trkpt lat="43.38679" lon="-0.48735">
        <ele>266.9</ele>
        <time>2012-03-20T15:09:55Z</time>
      </trkpt>
      <trkpt lat="43.38686" lon="-0.48745">
        <ele>266.9</ele>
        <time>2012-03-20T15:10:06Z</time>
      </trkpt>
      <trkpt lat="43.38693" lon="-0.48754">
        <ele>266.9</ele>
        <time>2012-03-20T15:10:16Z</time>
      </trkpt>
      <trkpt lat="43.387" lon="-0.48764">
        <ele>266.42</ele>
        <time>2012-03-20T15:10:25Z</time>
      </trkpt>
      <trkpt lat="43.38708" lon="-0.48773">
        <ele>266.42</ele>
        <time>2012-03-20T15:10:34Z</time>
      </trkpt>
      <trkpt lat="43.38715" lon="-0.48781">
        <ele>266.42</ele>
        <time>2012-03-20T15:10:43Z</time>
      </trkpt>
      <trkpt lat="43.38722" lon="-0.48791">
        <ele>266.42</ele>
        <time>2012-03-20T15:10:52Z</time>
      </trkpt>
      <trkpt lat="43.38728" lon="-0.488">
        <ele>266.42</ele>
        <time>2012-03-20T15:11:01Z</time>
      </trkpt>
      <trkpt lat="43.38734" lon="-0.4881">
        <ele>265.94</ele>
        <time>2012-03-20T15:11:10Z</time>
      </trkpt>
      <trkpt lat="43.38742" lon="-0.48819">
        <ele>265.94</ele>
        <time>2012-03-20T15:11:19Z</time>
      </trkpt>
      <trkpt lat="43.38749" lon="-0.4883">
        <ele>265.46</ele>
        <time>2012-03-20T15:11:28Z</time>
      </trkpt>
      <trkpt lat="43.38752" lon="-0.48842">
        <ele>265.46</ele>
        <time>2012-03-20T15:11:37Z</time>
      </trkpt>
      <trkpt lat="43.38753" lon="-0.48855">
        <ele>264.5</ele>
        <time>2012-03-20T15:11:46Z</time>
      </trkpt>
      <trkpt lat="43.38755" lon="-0.48868">
        <ele>263.54</ele>
        <time>2012-03-20T15:11:54Z</time>
      </trkpt>
      <trkpt lat="43.3876" lon="-0.48879">
        <ele>264.02</ele>
        <time>2012-03-20T15:12:08Z</time>
      </trkpt>
      <trkpt lat="43.38768" lon="-0.48888">
        <ele>264.02</ele>
        <time>2012-03-20T15:12:20Z</time>
      </trkpt>
      <trkpt lat="43.38777" lon="-0.48893">
        <ele>264.5</ele>
        <time>2012-03-20T15:12:34Z</time>
      </trkpt>
      <trkpt lat="43.38783" lon="-0.48907">
        <ele>264.02</ele>
        <time>2012-03-20T15:14:30Z</time>
      </trkpt>
      <trkpt lat="43.38789" lon="-0.4892">
        <ele>264.98</ele>
        <time>2012-03-20T15:14:43Z</time>
      </trkpt>
      <trkpt lat="43.38795" lon="-0.48932">
        <ele>264.98</ele>
        <time>2012-03-20T15:14:57Z</time>
      </trkpt>
      <trkpt lat="43.388" lon="-0.48944">
        <ele>264.5</ele>
        <time>2012-03-20T15:15:12Z</time>
      </trkpt>
      <trkpt lat="43.38806" lon="-0.48959">
        <ele>264.02</ele>
        <time>2012-03-20T15:15:26Z</time>
      </trkpt>
      <trkpt lat="43.38815" lon="-0.48965">
        <ele>265.46</ele>
        <time>2012-03-20T15:15:39Z</time>
      </trkpt>
      <trkpt lat="43.38816" lon="-0.48979">
        <ele>264.98</ele>
        <time>2012-03-20T15:15:52Z</time>
      </trkpt>
      <trkpt lat="43.38819" lon="-0.48991">
        <ele>265.94</ele>
        <time>2012-03-20T15:16:08Z</time>
      </trkpt>
      <trkpt lat="43.38825" lon="-0.49007">
        <ele>265.46</ele>
        <time>2012-03-20T15:16:19Z</time>
      </trkpt>
      <trkpt lat="43.38834" lon="-0.49013">
        <ele>266.42</ele>
        <time>2012-03-20T15:16:32Z</time>
      </trkpt>
      <trkpt lat="43.3884" lon="-0.49031">
        <ele>266.42</ele>
        <time>2012-03-20T15:16:48Z</time>
      </trkpt>
      <trkpt lat="43.38845" lon="-0.49044">
        <ele>267.38</ele>
        <time>2012-03-20T15:17:01Z</time>
      </trkpt>
      <trkpt lat="43.38849" lon="-0.49059">
        <ele>268.35</ele>
        <time>2012-03-20T15:17:15Z</time>
      </trkpt>
      <trkpt lat="43.38854" lon="-0.49077">
        <ele>268.35</ele>
        <time>2012-03-20T15:17:30Z</time>
      </trkpt>
      <trkpt lat="43.38854" lon="-0.49094">
        <ele>268.35</ele>
        <time>2012-03-20T15:17:43Z</time>
      </trkpt>
      <trkpt lat="43.38858" lon="-0.49111">
        <ele>267.86</ele>
        <time>2012-03-20T15:17:55Z</time>
      </trkpt>
      <trkpt lat="43.38861" lon="-0.49128">
        <ele>268.83</ele>
        <time>2012-03-20T15:18:10Z</time>
      </trkpt>
      <trkpt lat="43.38866" lon="-0.49142">
        <ele>268.83</ele>
        <time>2012-03-20T15:18:23Z</time>
      </trkpt>
      <trkpt lat="43.38867" lon="-0.49161">
        <ele>268.83</ele>
        <time>2012-03-20T15:18:36Z</time>
      </trkpt>
      <trkpt lat="43.38868" lon="-0.49178">
        <ele>269.31</ele>
        <time>2012-03-20T15:18:49Z</time>
      </trkpt>
      <trkpt lat="43.3887" lon="-0.49193">
        <ele>268.83</ele>
        <time>2012-03-20T15:19:00Z</time>
      </trkpt>
      <trkpt lat="43.38871" lon="-0.49208">
        <ele>268.83</ele>
        <time>2012-03-20T15:19:39Z</time>
      </trkpt>
      <trkpt lat="43.38866" lon="-0.49219">
        <ele>268.35</ele>
        <time>2012-03-20T15:19:52Z</time>
      </trkpt>
      <trkpt lat="43.38863" lon="-0.49236">
        <ele>267.38</ele>
        <time>2012-03-20T15:20:05Z</time>
      </trkpt>
      <trkpt lat="43.3886" lon="-0.49252">
        <ele>266.9</ele>
        <time>2012-03-20T15:20:16Z</time>
      </trkpt>
      <trkpt lat="43.38858" lon="-0.49269">
        <ele>266.42</ele>
        <time>2012-03-20T15:20:28Z</time>
      </trkpt>
      <trkpt lat="43.38854" lon="-0.49282">
        <ele>265.46</ele>
        <time>2012-03-20T15:20:44Z</time>
      </trkpt>
      <trkpt lat="43.3885" lon="-0.49298">
        <ele>264.5</ele>
        <time>2012-03-20T15:20:56Z</time>
      </trkpt>
      <trkpt lat="43.38846" lon="-0.49313">
        <ele>263.54</ele>
        <time>2012-03-20T15:21:06Z</time>
      </trkpt>
      <trkpt lat="43.38846" lon="-0.4933">
        <ele>263.06</ele>
        <time>2012-03-20T15:21:16Z</time>
      </trkpt>
      <trkpt lat="43.38843" lon="-0.49344">
        <ele>263.06</ele>
        <time>2012-03-20T15:21:26Z</time>
      </trkpt>
      <trkpt lat="43.3884" lon="-0.49357">
        <ele>261.62</ele>
        <time>2012-03-20T15:21:36Z</time>
      </trkpt>
      <trkpt lat="43.38836" lon="-0.49369">
        <ele>261.14</ele>
        <time>2012-03-20T15:21:45Z</time>
      </trkpt>
      <trkpt lat="43.38828" lon="-0.49379">
        <ele>260.17</ele>
        <time>2012-03-20T15:21:56Z</time>
      </trkpt>
      <trkpt lat="43.38822" lon="-0.49388">
        <ele>259.69</ele>
        <time>2012-03-20T15:22:05Z</time>
      </trkpt>
      <trkpt lat="43.38814" lon="-0.49397">
        <ele>258.73</ele>
        <time>2012-03-20T15:22:14Z</time>
      </trkpt>
      <trkpt lat="43.3881" lon="-0.4941">
        <ele>258.73</ele>
        <time>2012-03-20T15:22:23Z</time>
      </trkpt>
      <trkpt lat="43.38803" lon="-0.49421">
        <ele>258.25</ele>
        <time>2012-03-20T15:22:33Z</time>
      </trkpt>
      <trkpt lat="43.38795" lon="-0.49431">
        <ele>257.77</ele>
        <time>2012-03-20T15:22:44Z</time>
      </trkpt>
      <trkpt lat="43.38788" lon="-0.49445">
        <ele>257.29</ele>
        <time>2012-03-20T15:22:55Z</time>
      </trkpt>
      <trkpt lat="43.38781" lon="-0.4945">
        <ele>257.77</ele>
        <time>2012-03-20T15:23:22Z</time>
      </trkpt>
      <trkpt lat="43.38772" lon="-0.49457">
        <ele>257.29</ele>
        <time>2012-03-20T15:23:35Z</time>
      </trkpt>
      <trkpt lat="43.38764" lon="-0.49465">
        <ele>257.29</ele>
        <time>2012-03-20T15:24:09Z</time>
      </trkpt>
      <trkpt lat="43.38757" lon="-0.49478">
        <ele>257.29</ele>
        <time>2012-03-20T15:24:22Z</time>
      </trkpt>
      <trkpt lat="43.38752" lon="-0.49487">
        <ele>257.29</ele>
        <time>2012-03-20T15:24:34Z</time>
      </trkpt>
      <trkpt lat="43.38745" lon="-0.49501">
        <ele>256.81</ele>
        <time>2012-03-20T15:24:47Z</time>
      </trkpt>
      <trkpt lat="43.38737" lon="-0.49507">
        <ele>257.77</ele>
        <time>2012-03-20T15:24:59Z</time>
      </trkpt>
      <trkpt lat="43.38728" lon="-0.4951">
        <ele>257.29</ele>
        <time>2012-03-20T15:25:13Z</time>
      </trkpt>
      <trkpt lat="43.38718" lon="-0.49519">
        <ele>257.29</ele>
        <time>2012-03-20T15:25:22Z</time>
      </trkpt>
      <trkpt lat="43.38718" lon="-0.49537">
        <ele>256.81</ele>
        <time>2012-03-20T15:25:32Z</time>
      </trkpt>
      <trkpt lat="43.38712" lon="-0.49548">
        <ele>256.33</ele>
        <time>2012-03-20T15:25:43Z</time>
      </trkpt>
      <trkpt lat="43.38704" lon="-0.49554">
        <ele>255.85</ele>
        <time>2012-03-20T15:25:53Z</time>
      </trkpt>
      <trkpt lat="43.38695" lon="-0.4956">
        <ele>254.89</ele>
        <time>2012-03-20T15:26:03Z</time>
      </trkpt>
      <trkpt lat="43.38686" lon="-0.49567">
        <ele>254.41</ele>
        <time>2012-03-20T15:26:14Z</time>
      </trkpt>
      <trkpt lat="43.38676" lon="-0.4957">
        <ele>253.93</ele>
        <time>2012-03-20T15:26:24Z</time>
      </trkpt>
      <trkpt lat="43.38672" lon="-0.49561">
        <ele>253.93</ele>
        <time>2012-03-20T15:26:35Z</time>
      </trkpt>
      <trkpt lat="43.38669" lon="-0.49551">
        <ele>252.96</ele>
        <time>2012-03-20T15:26:46Z</time>
      </trkpt>
      <trkpt lat="43.38664" lon="-0.49542">
        <ele>253.44</ele>
        <time>2012-03-20T15:26:56Z</time>
      </trkpt>
      <trkpt lat="43.38659" lon="-0.49531">
        <ele>252.96</ele>
        <time>2012-03-20T15:27:05Z</time>
      </trkpt>
      <trkpt lat="43.38649" lon="-0.49525">
        <ele>252</ele>
        <time>2012-03-20T15:27:15Z</time>
      </trkpt>
      <trkpt lat="43.38639" lon="-0.49533">
        <ele>251.04</ele>
        <time>2012-03-20T15:27:25Z</time>
      </trkpt>
      <trkpt lat="43.38629" lon="-0.49543">
        <ele>250.08</ele>
        <time>2012-03-20T15:27:36Z</time>
      </trkpt>
      <trkpt lat="43.38621" lon="-0.4955">
        <ele>248.64</ele>
        <time>2012-03-20T15:27:47Z</time>
      </trkpt>
      <trkpt lat="43.38613" lon="-0.49557">
        <ele>247.68</ele>
        <time>2012-03-20T15:27:57Z</time>
      </trkpt>
      <trkpt lat="43.38604" lon="-0.49563">
        <ele>247.2</ele>
        <time>2012-03-20T15:28:07Z</time>
      </trkpt>
      <trkpt lat="43.38596" lon="-0.49571">
        <ele>245.27</ele>
        <time>2012-03-20T15:28:19Z</time>
      </trkpt>
      <trkpt lat="43.38588" lon="-0.49577">
        <ele>244.31</ele>
        <time>2012-03-20T15:28:28Z</time>
      </trkpt>
      <trkpt lat="43.38578" lon="-0.49583">
        <ele>243.83</ele>
        <time>2012-03-20T15:28:38Z</time>
      </trkpt>
      <trkpt lat="43.38569" lon="-0.49589">
        <ele>242.87</ele>
        <time>2012-03-20T15:28:48Z</time>
      </trkpt>
      <trkpt lat="43.3856" lon="-0.49596">
        <ele>242.87</ele>
        <time>2012-03-20T15:28:57Z</time>
      </trkpt>
      <trkpt lat="43.38553" lon="-0.49603">
        <ele>241.43</ele>
        <time>2012-03-20T15:29:06Z</time>
      </trkpt>
      <trkpt lat="43.38544" lon="-0.4961">
        <ele>240.95</ele>
        <time>2012-03-20T15:29:15Z</time>
      </trkpt>
      <trkpt lat="43.38535" lon="-0.49616">
        <ele>240.47</ele>
        <time>2012-03-20T15:29:24Z</time>
      </trkpt>
      <trkpt lat="43.38525" lon="-0.49623">
        <ele>239.99</ele>
        <time>2012-03-20T15:29:33Z</time>
      </trkpt>
      <trkpt lat="43.38516" lon="-0.49628">
        <ele>239.51</ele>
        <time>2012-03-20T15:29:41Z</time>
      </trkpt>
      <trkpt lat="43.38508" lon="-0.49635">
        <ele>239.02</ele>
        <time>2012-03-20T15:29:50Z</time>
      </trkpt>
      <trkpt lat="43.38499" lon="-0.49644">
        <ele>238.06</ele>
        <time>2012-03-20T15:29:59Z</time>
      </trkpt>
      <trkpt lat="43.38489" lon="-0.4965">
        <ele>237.58</ele>
        <time>2012-03-20T15:30:08Z</time>
      </trkpt>
      <trkpt lat="43.38481" lon="-0.49657">
        <ele>237.58</ele>
        <time>2012-03-20T15:30:17Z</time>
      </trkpt>
      <trkpt lat="43.38473" lon="-0.49662">
        <ele>237.1</ele>
        <time>2012-03-20T15:30:25Z</time>
      </trkpt>
      <trkpt lat="43.38464" lon="-0.49669">
        <ele>237.1</ele>
        <time>2012-03-20T15:30:34Z</time>
      </trkpt>
      <trkpt lat="43.38455" lon="-0.49676">
        <ele>237.1</ele>
        <time>2012-03-20T15:30:43Z</time>
      </trkpt>
      <trkpt lat="43.38444" lon="-0.49684">
        <ele>236.62</ele>
        <time>2012-03-20T15:30:53Z</time>
      </trkpt>
      <trkpt lat="43.38436" lon="-0.49684">
        <ele>237.1</ele>
        <time>2012-03-20T15:31:04Z</time>
      </trkpt>
      <trkpt lat="43.3843" lon="-0.4967">
        <ele>236.62</ele>
        <time>2012-03-20T15:31:18Z</time>
      </trkpt>
      <trkpt lat="43.38422" lon="-0.49658">
        <ele>235.66</ele>
        <time>2012-03-20T15:31:29Z</time>
      </trkpt>
      <trkpt lat="43.38419" lon="-0.49643">
        <ele>234.7</ele>
        <time>2012-03-20T15:31:42Z</time>
      </trkpt>
      <trkpt lat="43.38419" lon="-0.4963">
        <ele>232.3</ele>
        <time>2012-03-20T15:31:54Z</time>
      </trkpt>
      <trkpt lat="43.38416" lon="-0.49616">
        <ele>229.89</ele>
        <time>2012-03-20T15:32:07Z</time>
      </trkpt>
      <trkpt lat="43.38409" lon="-0.49607">
        <ele>227.49</ele>
        <time>2012-03-20T15:32:18Z</time>
      </trkpt>
      <trkpt lat="43.38398" lon="-0.49604">
        <ele>225.09</ele>
        <time>2012-03-20T15:32:28Z</time>
      </trkpt>
      <trkpt lat="43.38388" lon="-0.49601">
        <ele>222.68</ele>
        <time>2012-03-20T15:32:40Z</time>
      </trkpt>
      <trkpt lat="43.3838" lon="-0.49601">
        <ele>219.8</ele>
        <time>2012-03-20T15:32:59Z</time>
      </trkpt>
      <trkpt lat="43.38371" lon="-0.49594">
        <ele>215.95</ele>
        <time>2012-03-20T15:33:14Z</time>
      </trkpt>
      <trkpt lat="43.38361" lon="-0.49591">
        <ele>212.59</ele>
        <time>2012-03-20T15:33:26Z</time>
      </trkpt>
      <trkpt lat="43.38357" lon="-0.49582">
        <ele>210.67</ele>
        <time>2012-03-20T15:34:49Z</time>
      </trkpt>
      <trkpt lat="43.38351" lon="-0.49572">
        <ele>208.74</ele>
        <time>2012-03-20T15:35:07Z</time>
      </trkpt>
      <trkpt lat="43.38346" lon="-0.49562">
        <ele>206.82</ele>
        <time>2012-03-20T15:35:20Z</time>
      </trkpt>
      <trkpt lat="43.38339" lon="-0.49554">
        <ele>204.9</ele>
        <time>2012-03-20T15:35:30Z</time>
      </trkpt>
      <trkpt lat="43.38333" lon="-0.49543">
        <ele>202.49</ele>
        <time>2012-03-20T15:35:41Z</time>
      </trkpt>
      <trkpt lat="43.38326" lon="-0.49534">
        <ele>201.05</ele>
        <time>2012-03-20T15:35:51Z</time>
      </trkpt>
      <trkpt lat="43.38314" lon="-0.49529">
        <ele>199.13</ele>
        <time>2012-03-20T15:36:02Z</time>
      </trkpt>
      <trkpt lat="43.38309" lon="-0.49519">
        <ele>197.21</ele>
        <time>2012-03-20T15:36:14Z</time>
      </trkpt>
      <trkpt lat="43.38302" lon="-0.49512">
        <ele>195.28</ele>
        <time>2012-03-20T15:36:25Z</time>
      </trkpt>
      <trkpt lat="43.38292" lon="-0.49501">
        <ele>193.84</ele>
        <time>2012-03-20T15:36:37Z</time>
      </trkpt>
      <trkpt lat="43.38286" lon="-0.49495">
        <ele>192.4</ele>
        <time>2012-03-20T15:37:36Z</time>
      </trkpt>
      <trkpt lat="43.38277" lon="-0.4949">
        <ele>190.96</ele>
        <time>2012-03-20T15:37:49Z</time>
      </trkpt>
      <trkpt lat="43.38273" lon="-0.49479">
        <ele>187.11</ele>
        <time>2012-03-20T15:38:09Z</time>
      </trkpt>
      <trkpt lat="43.38264" lon="-0.49456">
        <ele>185.67</ele>
        <time>2012-03-20T15:38:21Z</time>
      </trkpt>
      <trkpt lat="43.38256" lon="-0.49448">
        <ele>184.71</ele>
        <time>2012-03-20T15:38:30Z</time>
      </trkpt>
      <trkpt lat="43.38242" lon="-0.4945">
        <ele>185.19</ele>
        <time>2012-03-20T15:38:40Z</time>
      </trkpt>
      <trkpt lat="43.38231" lon="-0.49456">
        <ele>184.71</ele>
        <time>2012-03-20T15:38:53Z</time>
      </trkpt>
      <trkpt lat="43.38221" lon="-0.4946">
        <ele>183.75</ele>
        <time>2012-03-20T15:39:05Z</time>
      </trkpt>
      <trkpt lat="43.38207" lon="-0.49463">
        <ele>182.79</ele>
        <time>2012-03-20T15:39:17Z</time>
      </trkpt>
      <trkpt lat="43.38194" lon="-0.49469">
        <ele>181.83</ele>
        <time>2012-03-20T15:39:29Z</time>
      </trkpt>
      <trkpt lat="43.3818" lon="-0.49473">
        <ele>180.87</ele>
        <time>2012-03-20T15:39:41Z</time>
      </trkpt>
      <trkpt lat="43.38163" lon="-0.49476">
        <ele>179.9</ele>
        <time>2012-03-20T15:39:52Z</time>
      </trkpt>
      <trkpt lat="43.38151" lon="-0.49483">
        <ele>179.42</ele>
        <time>2012-03-20T15:40:04Z</time>
      </trkpt>
      <trkpt lat="43.38138" lon="-0.49486">
        <ele>178.46</ele>
        <time>2012-03-20T15:40:16Z</time>
      </trkpt>
      <trkpt lat="43.38127" lon="-0.4949">
        <ele>178.46</ele>
        <time>2012-03-20T15:40:25Z</time>
      </trkpt>
      <trkpt lat="43.38113" lon="-0.49495">
        <ele>178.46</ele>
        <time>2012-03-20T15:40:37Z</time>
      </trkpt>
      <trkpt lat="43.38104" lon="-0.49504">
        <ele>177.98</ele>
        <time>2012-03-20T15:40:49Z</time>
      </trkpt>
      <trkpt lat="43.38091" lon="-0.49514">
        <ele>177.5</ele>
        <time>2012-03-20T15:41:03Z</time>
      </trkpt>
      <trkpt lat="43.38079" lon="-0.49525">
        <ele>177.02</ele>
        <time>2012-03-20T15:41:14Z</time>
      </trkpt>
      <trkpt lat="43.38069" lon="-0.49537">
        <ele>176.54</ele>
        <time>2012-03-20T15:41:24Z</time>
      </trkpt>
      <trkpt lat="43.38061" lon="-0.4955">
        <ele>176.06</ele>
        <time>2012-03-20T15:41:33Z</time>
      </trkpt>
      <trkpt lat="43.38055" lon="-0.49566">
        <ele>175.1</ele>
        <time>2012-03-20T15:41:42Z</time>
      </trkpt>
      <trkpt lat="43.38051" lon="-0.4958">
        <ele>174.62</ele>
        <time>2012-03-20T15:41:51Z</time>
      </trkpt>
      <trkpt lat="43.38047" lon="-0.49594">
        <ele>173.17</ele>
        <time>2012-03-20T15:42:01Z</time>
      </trkpt>
      <trkpt lat="43.3804" lon="-0.49609">
        <ele>172.21</ele>
        <time>2012-03-20T15:42:12Z</time>
      </trkpt>
      <trkpt lat="43.38034" lon="-0.4962">
        <ele>171.73</ele>
        <time>2012-03-20T15:42:24Z</time>
      </trkpt>
      <trkpt lat="43.38026" lon="-0.49624">
        <ele>170.77</ele>
        <time>2012-03-20T15:42:52Z</time>
      </trkpt>
      <trkpt lat="43.38021" lon="-0.49619">
        <ele>170.77</ele>
        <time>2012-03-20T15:43:51Z</time>
      </trkpt>
      <trkpt lat="43.38015" lon="-0.49608">
        <ele>169.81</ele>
        <time>2012-03-20T15:44:01Z</time>
      </trkpt>
      <trkpt lat="43.38008" lon="-0.49597">
        <ele>169.81</ele>
        <time>2012-03-20T15:44:10Z</time>
      </trkpt>
      <trkpt lat="43.38002" lon="-0.49584">
        <ele>169.33</ele>
        <time>2012-03-20T15:44:20Z</time>
      </trkpt>
      <trkpt lat="43.37995" lon="-0.49573">
        <ele>169.33</ele>
        <time>2012-03-20T15:44:29Z</time>
      </trkpt>
      <trkpt lat="43.3799" lon="-0.49561">
        <ele>169.33</ele>
        <time>2012-03-20T15:44:37Z</time>
      </trkpt>
      <trkpt lat="43.37985" lon="-0.4955">
        <ele>168.37</ele>
        <time>2012-03-20T15:44:46Z</time>
      </trkpt>
      <trkpt lat="43.37979" lon="-0.49538">
        <ele>167.89</ele>
        <time>2012-03-20T15:44:54Z</time>
      </trkpt>
      <trkpt lat="43.37975" lon="-0.49528">
        <ele>167.41</ele>
        <time>2012-03-20T15:45:02Z</time>
      </trkpt>
      <trkpt lat="43.37971" lon="-0.49517">
        <ele>167.41</ele>
        <time>2012-03-20T15:45:10Z</time>
      </trkpt>
      <trkpt lat="43.37963" lon="-0.49504">
        <ele>167.89</ele>
        <time>2012-03-20T15:45:19Z</time>
      </trkpt>
      <trkpt lat="43.37958" lon="-0.49492">
        <ele>168.37</ele>
        <time>2012-03-20T15:45:28Z</time>
      </trkpt>
      <trkpt lat="43.37964" lon="-0.4948">
        <ele>168.85</ele>
        <time>2012-03-20T15:45:39Z</time>
      </trkpt>
      <trkpt lat="43.37971" lon="-0.49469">
        <ele>169.33</ele>
        <time>2012-03-20T15:45:50Z</time>
      </trkpt>
      <trkpt lat="43.37977" lon="-0.49457">
        <ele>169.33</ele>
        <time>2012-03-20T15:46:00Z</time>
      </trkpt>
      <trkpt lat="43.37982" lon="-0.49444">
        <ele>169.81</ele>
        <time>2012-03-20T15:46:10Z</time>
      </trkpt>
      <trkpt lat="43.3799" lon="-0.49432">
        <ele>170.77</ele>
        <time>2012-03-20T15:46:21Z</time>
      </trkpt>
      <trkpt lat="43.37998" lon="-0.49417">
        <ele>171.25</ele>
        <time>2012-03-20T15:46:34Z</time>
      </trkpt>
      <trkpt lat="43.38004" lon="-0.49404">
        <ele>172.21</ele>
        <time>2012-03-20T15:46:45Z</time>
      </trkpt>
      <trkpt lat="43.38008" lon="-0.49388">
        <ele>171.73</ele>
        <time>2012-03-20T15:46:56Z</time>
      </trkpt>
      <trkpt lat="43.38013" lon="-0.49375">
        <ele>172.69</ele>
        <time>2012-03-20T15:47:05Z</time>
      </trkpt>
      <trkpt lat="43.38018" lon="-0.49362">
        <ele>173.17</ele>
        <time>2012-03-20T15:47:14Z</time>
      </trkpt>
      <trkpt lat="43.38021" lon="-0.49347">
        <ele>173.66</ele>
        <time>2012-03-20T15:47:25Z</time>
      </trkpt>
      <trkpt lat="43.38025" lon="-0.49333">
        <ele>174.62</ele>
        <time>2012-03-20T15:47:36Z</time>
      </trkpt>
      <trkpt lat="43.38033" lon="-0.49323">
        <ele>175.1</ele>
        <time>2012-03-20T15:47:46Z</time>
      </trkpt>
      <trkpt lat="43.3804" lon="-0.49312">
        <ele>176.06</ele>
        <time>2012-03-20T15:47:59Z</time>
      </trkpt>
      <trkpt lat="43.38049" lon="-0.49302">
        <ele>176.06</ele>
        <time>2012-03-20T15:48:08Z</time>
      </trkpt>
      <trkpt lat="43.38057" lon="-0.49289">
        <ele>175.58</ele>
        <time>2012-03-20T15:48:19Z</time>
      </trkpt>
      <trkpt lat="43.38061" lon="-0.49277">
        <ele>175.58</ele>
        <time>2012-03-20T15:48:28Z</time>
      </trkpt>
      <trkpt lat="43.38069" lon="-0.49266">
        <ele>175.1</ele>
        <time>2012-03-20T15:48:37Z</time>
      </trkpt>
      <trkpt lat="43.38078" lon="-0.49253">
        <ele>175.1</ele>
        <time>2012-03-20T15:48:48Z</time>
      </trkpt>
      <trkpt lat="43.38084" lon="-0.49242">
        <ele>175.58</ele>
        <time>2012-03-20T15:48:59Z</time>
      </trkpt>
      <trkpt lat="43.38088" lon="-0.49228">
        <ele>176.06</ele>
        <time>2012-03-20T15:49:07Z</time>
      </trkpt>
      <trkpt lat="43.38086" lon="-0.49213">
        <ele>176.54</ele>
        <time>2012-03-20T15:49:17Z</time>
      </trkpt>
      <trkpt lat="43.38084" lon="-0.49201">
        <ele>177.5</ele>
        <time>2012-03-20T15:49:26Z</time>
      </trkpt>
      <trkpt lat="43.38079" lon="-0.49192">
        <ele>178.46</ele>
        <time>2012-03-20T15:49:35Z</time>
      </trkpt>
      <trkpt lat="43.3808" lon="-0.49177">
        <ele>178.94</ele>
        <time>2012-03-20T15:49:44Z</time>
      </trkpt>
      <trkpt lat="43.38085" lon="-0.49166">
        <ele>181.35</ele>
        <time>2012-03-20T15:49:55Z</time>
      </trkpt>
      <trkpt lat="43.38091" lon="-0.49156">
        <ele>181.35</ele>
        <time>2012-03-20T15:50:04Z</time>
      </trkpt>
      <trkpt lat="43.38096" lon="-0.49145">
        <ele>181.83</ele>
        <time>2012-03-20T15:50:15Z</time>
      </trkpt>
      <trkpt lat="43.38101" lon="-0.4913">
        <ele>181.35</ele>
        <time>2012-03-20T15:50:27Z</time>
      </trkpt>
      <trkpt lat="43.38106" lon="-0.49118">
        <ele>181.83</ele>
        <time>2012-03-20T15:50:37Z</time>
      </trkpt>
      <trkpt lat="43.38111" lon="-0.49108">
        <ele>182.31</ele>
        <time>2012-03-20T15:50:46Z</time>
      </trkpt>
      <trkpt lat="43.3812" lon="-0.49098">
        <ele>183.27</ele>
        <time>2012-03-20T15:50:55Z</time>
      </trkpt>
      <trkpt lat="43.38126" lon="-0.49087">
        <ele>183.75</ele>
        <time>2012-03-20T15:51:06Z</time>
      </trkpt>
      <trkpt lat="43.38132" lon="-0.49078">
        <ele>184.23</ele>
        <time>2012-03-20T15:51:13Z</time>
      </trkpt>
      <trkpt lat="43.38136" lon="-0.49064">
        <ele>184.71</ele>
        <time>2012-03-20T15:51:22Z</time>
      </trkpt>
      <trkpt lat="43.38137" lon="-0.49051">
        <ele>184.23</ele>
        <time>2012-03-20T15:51:30Z</time>
      </trkpt>
      <trkpt lat="43.38134" lon="-0.49038">
        <ele>185.19</ele>
        <time>2012-03-20T15:51:39Z</time>
      </trkpt>
      <trkpt lat="43.38129" lon="-0.49029">
        <ele>185.67</ele>
        <time>2012-03-20T15:51:51Z</time>
      </trkpt>
      <trkpt lat="43.38125" lon="-0.49016">
        <ele>186.63</ele>
        <time>2012-03-20T15:52:01Z</time>
      </trkpt>
      <trkpt lat="43.38122" lon="-0.49003">
        <ele>187.11</ele>
        <time>2012-03-20T15:52:11Z</time>
      </trkpt>
      <trkpt lat="43.38119" lon="-0.48993">
        <ele>188.56</ele>
        <time>2012-03-20T15:52:24Z</time>
      </trkpt>
      <trkpt lat="43.38114" lon="-0.48981">
        <ele>190</ele>
        <time>2012-03-20T15:52:36Z</time>
      </trkpt>
      <trkpt lat="43.38108" lon="-0.48971">
        <ele>190.48</ele>
        <time>2012-03-20T15:52:46Z</time>
      </trkpt>
      <trkpt lat="43.38101" lon="-0.4896">
        <ele>191.44</ele>
        <time>2012-03-20T15:52:57Z</time>
      </trkpt>
      <trkpt lat="43.38097" lon="-0.48949">
        <ele>191.92</ele>
        <time>2012-03-20T15:53:08Z</time>
      </trkpt>
      <trkpt lat="43.38089" lon="-0.48941">
        <ele>192.88</ele>
        <time>2012-03-20T15:53:18Z</time>
      </trkpt>
      <trkpt lat="43.38084" lon="-0.48931">
        <ele>194.32</ele>
        <time>2012-03-20T15:53:36Z</time>
      </trkpt>
      <trkpt lat="43.38081" lon="-0.48919">
        <ele>195.28</ele>
        <time>2012-03-20T15:53:53Z</time>
      </trkpt>
      <trkpt lat="43.38075" lon="-0.4891">
        <ele>196.73</ele>
        <time>2012-03-20T15:54:13Z</time>
      </trkpt>
      <trkpt lat="43.38069" lon="-0.48901">
        <ele>197.21</ele>
        <time>2012-03-20T15:54:24Z</time>
      </trkpt>
      <trkpt lat="43.38064" lon="-0.48891">
        <ele>197.69</ele>
        <time>2012-03-20T15:54:36Z</time>
      </trkpt>
      <trkpt lat="43.38058" lon="-0.48882">
        <ele>199.61</ele>
        <time>2012-03-20T15:54:52Z</time>
      </trkpt>
      <trkpt lat="43.38052" lon="-0.48874">
        <ele>200.57</ele>
        <time>2012-03-20T15:55:04Z</time>
      </trkpt>
      <trkpt lat="43.38045" lon="-0.48866">
        <ele>201.53</ele>
        <time>2012-03-20T15:55:20Z</time>
      </trkpt>
      <trkpt lat="43.38037" lon="-0.48859">
        <ele>202.49</ele>
        <time>2012-03-20T15:55:49Z</time>
      </trkpt>
      <trkpt lat="43.38031" lon="-0.4885">
        <ele>203.46</ele>
        <time>2012-03-20T15:56:01Z</time>
      </trkpt>
      <trkpt lat="43.38026" lon="-0.4884">
        <ele>204.42</ele>
        <time>2012-03-20T15:56:15Z</time>
      </trkpt>
      <trkpt lat="43.3802" lon="-0.4883">
        <ele>206.34</ele>
        <time>2012-03-20T15:56:43Z</time>
      </trkpt>
      <trkpt lat="43.38017" lon="-0.48817">
        <ele>206.82</ele>
        <time>2012-03-20T15:56:54Z</time>
      </trkpt>
      <trkpt lat="43.38016" lon="-0.48805">
        <ele>209.7</ele>
        <time>2012-03-20T15:57:17Z</time>
      </trkpt>
      <trkpt lat="43.3802" lon="-0.48794">
        <ele>213.07</ele>
        <time>2012-03-20T15:57:43Z</time>
      </trkpt>
      <trkpt lat="43.38026" lon="-0.48786">
        <ele>214.99</ele>
        <time>2012-03-20T15:57:59Z</time>
      </trkpt>
      <trkpt lat="43.38033" lon="-0.48777">
        <ele>217.88</ele>
        <time>2012-03-20T15:58:21Z</time>
      </trkpt>
      <trkpt lat="43.38034" lon="-0.48765">
        <ele>219.8</ele>
        <time>2012-03-20T15:58:37Z</time>
      </trkpt>
      <trkpt lat="43.38033" lon="-0.48753">
        <ele>222.2</ele>
        <time>2012-03-20T15:58:58Z</time>
      </trkpt>
      <trkpt lat="43.38031" lon="-0.48742">
        <ele>223.64</ele>
        <time>2012-03-20T15:59:36Z</time>
      </trkpt>
      <trkpt lat="43.38033" lon="-0.48729">
        <ele>225.57</ele>
        <time>2012-03-20T16:00:10Z</time>
      </trkpt>
      <trkpt lat="43.38037" lon="-0.48718">
        <ele>227.49</ele>
        <time>2012-03-20T16:00:26Z</time>
      </trkpt>
      <trkpt lat="43.38044" lon="-0.48714">
        <ele>229.41</ele>
        <time>2012-03-20T16:02:01Z</time>
      </trkpt>
      <trkpt lat="43.38053" lon="-0.48708">
        <ele>233.26</ele>
        <time>2012-03-20T16:02:41Z</time>
      </trkpt>
      <trkpt lat="43.3806" lon="-0.48695">
        <ele>235.18</ele>
        <time>2012-03-20T16:03:08Z</time>
      </trkpt>
      <trkpt lat="43.38071" lon="-0.48683">
        <ele>237.1</ele>
        <time>2012-03-20T16:03:35Z</time>
      </trkpt>
      <trkpt lat="43.38063" lon="-0.48668">
        <ele>234.7</ele>
        <time>2012-03-20T16:04:36Z</time>
      </trkpt>
      <trkpt lat="43.38054" lon="-0.48664">
        <ele>231.33</ele>
        <time>2012-03-20T16:05:19Z</time>
      </trkpt>
      <trkpt lat="43.38044" lon="-0.48674">
        <ele>228.93</ele>
        <time>2012-03-20T16:06:51Z</time>
      </trkpt>
      <trkpt lat="43.38034" lon="-0.48687">
        <ele>227.49</ele>
        <time>2012-03-20T16:07:06Z</time>
      </trkpt>
      <trkpt lat="43.38025" lon="-0.4869">
        <ele>223.64</ele>
        <time>2012-03-20T16:07:25Z</time>
      </trkpt>
      <trkpt lat="43.38015" lon="-0.48683">
        <ele>219.8</ele>
        <time>2012-03-20T16:07:34Z</time>
      </trkpt>
      <trkpt lat="43.38005" lon="-0.48684">
        <ele>219.8</ele>
        <time>2012-03-20T16:07:45Z</time>
      </trkpt>
      <trkpt lat="43.37997" lon="-0.48689">
        <ele>220.76</ele>
        <time>2012-03-20T16:07:54Z</time>
      </trkpt>
      <trkpt lat="43.37987" lon="-0.48684">
        <ele>223.16</ele>
        <time>2012-03-20T16:10:04Z</time>
      </trkpt>
      <trkpt lat="43.37979" lon="-0.4868">
        <ele>226.05</ele>
        <time>2012-03-20T16:10:16Z</time>
      </trkpt>
      <trkpt lat="43.37973" lon="-0.48673">
        <ele>229.41</ele>
        <time>2012-03-20T16:10:29Z</time>
      </trkpt>
      <trkpt lat="43.37967" lon="-0.48663">
        <ele>230.37</ele>
        <time>2012-03-20T16:10:41Z</time>
      </trkpt>
      <trkpt lat="43.37964" lon="-0.48652">
        <ele>231.33</ele>
        <time>2012-03-20T16:10:52Z</time>
      </trkpt>
      <trkpt lat="43.37958" lon="-0.48642">
        <ele>233.26</ele>
        <time>2012-03-20T16:11:08Z</time>
      </trkpt>
      <trkpt lat="43.37964" lon="-0.48633">
        <ele>232.78</ele>
        <time>2012-03-20T16:11:39Z</time>
      </trkpt>
      <trkpt lat="43.37969" lon="-0.48622">
        <ele>234.22</ele>
        <time>2012-03-20T16:11:52Z</time>
      </trkpt>
      <trkpt lat="43.37972" lon="-0.4861">
        <ele>234.7</ele>
        <time>2012-03-20T16:13:37Z</time>
      </trkpt>
      <trkpt lat="43.37977" lon="-0.48598">
        <ele>235.18</ele>
        <time>2012-03-20T16:13:47Z</time>
      </trkpt>
      <trkpt lat="43.37982" lon="-0.48585">
        <ele>234.7</ele>
        <time>2012-03-20T16:13:57Z</time>
      </trkpt>
      <trkpt lat="43.37987" lon="-0.48573">
        <ele>236.14</ele>
        <time>2012-03-20T16:14:07Z</time>
      </trkpt>
      <trkpt lat="43.37992" lon="-0.48562">
        <ele>236.14</ele>
        <time>2012-03-20T16:14:17Z</time>
      </trkpt>
      <trkpt lat="43.37998" lon="-0.4855">
        <ele>237.1</ele>
        <time>2012-03-20T16:14:28Z</time>
      </trkpt>
      <trkpt lat="43.38002" lon="-0.48538">
        <ele>238.06</ele>
        <time>2012-03-20T16:14:39Z</time>
      </trkpt>
      <trkpt lat="43.38007" lon="-0.48524">
        <ele>239.99</ele>
        <time>2012-03-20T16:14:51Z</time>
      </trkpt>
      <trkpt lat="43.38012" lon="-0.48511">
        <ele>240.47</ele>
        <time>2012-03-20T16:15:03Z</time>
      </trkpt>
      <trkpt lat="43.38017" lon="-0.48498">
        <ele>241.43</ele>
        <time>2012-03-20T16:15:15Z</time>
      </trkpt>
      <trkpt lat="43.38021" lon="-0.48486">
        <ele>242.39</ele>
        <time>2012-03-20T16:15:29Z</time>
      </trkpt>
      <trkpt lat="43.38018" lon="-0.48478">
        <ele>242.87</ele>
        <time>2012-03-20T16:16:04Z</time>
      </trkpt>
      <trkpt lat="43.38008" lon="-0.48459">
        <ele>240.47</ele>
        <time>2012-03-20T16:16:17Z</time>
      </trkpt>
      <trkpt lat="43.37997" lon="-0.4845">
        <ele>239.02</ele>
        <time>2012-03-20T16:16:27Z</time>
      </trkpt>
      <trkpt lat="43.37991" lon="-0.48442">
        <ele>237.1</ele>
        <time>2012-03-20T16:16:36Z</time>
      </trkpt>
      <trkpt lat="43.37981" lon="-0.48435">
        <ele>235.66</ele>
        <time>2012-03-20T16:16:45Z</time>
      </trkpt>
      <trkpt lat="43.3797" lon="-0.48426">
        <ele>234.22</ele>
        <time>2012-03-20T16:16:58Z</time>
      </trkpt>
      <trkpt lat="43.37954" lon="-0.48418">
        <ele>232.78</ele>
        <time>2012-03-20T16:17:11Z</time>
      </trkpt>
      <trkpt lat="43.37941" lon="-0.48411">
        <ele>231.81</ele>
        <time>2012-03-20T16:17:24Z</time>
      </trkpt>
      <trkpt lat="43.37923" lon="-0.484">
        <ele>231.81</ele>
        <time>2012-03-20T16:17:37Z</time>
      </trkpt>
      <trkpt lat="43.3791" lon="-0.48391">
        <ele>231.33</ele>
        <time>2012-03-20T16:17:50Z</time>
      </trkpt>
      <trkpt lat="43.37896" lon="-0.48386">
        <ele>230.85</ele>
        <time>2012-03-20T16:18:01Z</time>
      </trkpt>
      <trkpt lat="43.37878" lon="-0.48384">
        <ele>229.89</ele>
        <time>2012-03-20T16:18:14Z</time>
      </trkpt>
      <trkpt lat="43.37862" lon="-0.48385">
        <ele>229.89</ele>
        <time>2012-03-20T16:18:28Z</time>
      </trkpt>
      <trkpt lat="43.37851" lon="-0.48387">
        <ele>228.45</ele>
        <time>2012-03-20T16:18:39Z</time>
      </trkpt>
      <trkpt lat="43.37842" lon="-0.48384">
        <ele>227.97</ele>
        <time>2012-03-20T16:18:45Z</time>
      </trkpt>
      <trkpt lat="43.3783" lon="-0.48385">
        <ele>227.49</ele>
        <time>2012-03-20T16:18:55Z</time>
      </trkpt>
      <trkpt lat="43.37819" lon="-0.48388">
        <ele>227.97</ele>
        <time>2012-03-20T16:19:05Z</time>
      </trkpt>
      <trkpt lat="43.37808" lon="-0.4839">
        <ele>225.09</ele>
        <time>2012-03-20T16:19:15Z</time>
      </trkpt>
      <trkpt lat="43.37796" lon="-0.48395">
        <ele>224.12</ele>
        <time>2012-03-20T16:19:25Z</time>
      </trkpt>
      <trkpt lat="43.37785" lon="-0.484">
        <ele>223.16</ele>
        <time>2012-03-20T16:19:35Z</time>
      </trkpt>
      <trkpt lat="43.37775" lon="-0.48403">
        <ele>221.72</ele>
        <time>2012-03-20T16:19:45Z</time>
      </trkpt>
      <trkpt lat="43.37763" lon="-0.48404">
        <ele>221.72</ele>
        <time>2012-03-20T16:19:55Z</time>
      </trkpt>
      <trkpt lat="43.37751" lon="-0.48406">
        <ele>220.28</ele>
        <time>2012-03-20T16:20:04Z</time>
      </trkpt>
      <trkpt lat="43.37741" lon="-0.48404">
        <ele>219.32</ele>
        <time>2012-03-20T16:20:13Z</time>
      </trkpt>
      <trkpt lat="43.3773" lon="-0.48406">
        <ele>218.36</ele>
        <time>2012-03-20T16:20:23Z</time>
      </trkpt>
      <trkpt lat="43.37719" lon="-0.48407">
        <ele>218.36</ele>
        <time>2012-03-20T16:20:33Z</time>
      </trkpt>
      <trkpt lat="43.37706" lon="-0.48405">
        <ele>217.4</ele>
        <time>2012-03-20T16:20:44Z</time>
      </trkpt>
      <trkpt lat="43.37693" lon="-0.48405">
        <ele>216.43</ele>
        <time>2012-03-20T16:20:55Z</time>
      </trkpt>
      <trkpt lat="43.3768" lon="-0.48407">
        <ele>215.95</ele>
        <time>2012-03-20T16:21:06Z</time>
      </trkpt>
      <trkpt lat="43.37667" lon="-0.48409">
        <ele>215.47</ele>
        <time>2012-03-20T16:21:17Z</time>
      </trkpt>
      <trkpt lat="43.37655" lon="-0.48414">
        <ele>214.51</ele>
        <time>2012-03-20T16:21:28Z</time>
      </trkpt>
      <trkpt lat="43.37641" lon="-0.48423">
        <ele>214.51</ele>
        <time>2012-03-20T16:21:41Z</time>
      </trkpt>
      <trkpt lat="43.37629" lon="-0.48432">
        <ele>213.55</ele>
        <time>2012-03-20T16:21:52Z</time>
      </trkpt>
      <trkpt lat="43.37617" lon="-0.48439">
        <ele>212.59</ele>
        <time>2012-03-20T16:22:02Z</time>
      </trkpt>
      <trkpt lat="43.37605" lon="-0.48441">
        <ele>211.15</ele>
        <time>2012-03-20T16:22:12Z</time>
      </trkpt>
      <trkpt lat="43.37593" lon="-0.48439">
        <ele>208.74</ele>
        <time>2012-03-20T16:22:23Z</time>
      </trkpt>
      <trkpt lat="43.37581" lon="-0.48439">
        <ele>207.3</ele>
        <time>2012-03-20T16:22:34Z</time>
      </trkpt>
      <trkpt lat="43.37568" lon="-0.48437">
        <ele>204.9</ele>
        <time>2012-03-20T16:22:46Z</time>
      </trkpt>
      <trkpt lat="43.37557" lon="-0.48438">
        <ele>203.46</ele>
        <time>2012-03-20T16:22:56Z</time>
      </trkpt>
      <trkpt lat="43.37547" lon="-0.48438">
        <ele>201.53</ele>
        <time>2012-03-20T16:23:06Z</time>
      </trkpt>
      <trkpt lat="43.37537" lon="-0.48437">
        <ele>200.09</ele>
        <time>2012-03-20T16:23:16Z</time>
      </trkpt>
      <trkpt lat="43.37526" lon="-0.48438">
        <ele>198.17</ele>
        <time>2012-03-20T16:23:26Z</time>
      </trkpt>
      <trkpt lat="43.37515" lon="-0.48435">
        <ele>196.73</ele>
        <time>2012-03-20T16:23:36Z</time>
      </trkpt>
      <trkpt lat="43.37505" lon="-0.48437">
        <ele>195.28</ele>
        <time>2012-03-20T16:23:45Z</time>
      </trkpt>
      <trkpt lat="43.37495" lon="-0.48439">
        <ele>193.84</ele>
        <time>2012-03-20T16:23:53Z</time>
      </trkpt>
      <trkpt lat="43.37484" lon="-0.48442">
        <ele>191.92</ele>
        <time>2012-03-20T16:24:03Z</time>
      </trkpt>
      <trkpt lat="43.37473" lon="-0.48446">
        <ele>190</ele>
        <time>2012-03-20T16:24:15Z</time>
      </trkpt>
      <trkpt lat="43.3746" lon="-0.48449">
        <ele>187.59</ele>
        <time>2012-03-20T16:24:28Z</time>
      </trkpt>
      <trkpt lat="43.37449" lon="-0.48456">
        <ele>185.19</ele>
        <time>2012-03-20T16:24:40Z</time>
      </trkpt>
      <trkpt lat="43.37438" lon="-0.48465">
        <ele>183.27</ele>
        <time>2012-03-20T16:24:53Z</time>
      </trkpt>
      <trkpt lat="43.37426" lon="-0.48466">
        <ele>180.87</ele>
        <time>2012-03-20T16:25:04Z</time>
      </trkpt>
      <trkpt lat="43.37415" lon="-0.48463">
        <ele>178.94</ele>
        <time>2012-03-20T16:25:16Z</time>
      </trkpt>
      <trkpt lat="43.37405" lon="-0.48461">
        <ele>177.02</ele>
        <time>2012-03-20T16:25:28Z</time>
      </trkpt>
      <trkpt lat="43.37395" lon="-0.48455">
        <ele>175.1</ele>
        <time>2012-03-20T16:25:40Z</time>
      </trkpt>
      <trkpt lat="43.37389" lon="-0.48443">
        <ele>173.17</ele>
        <time>2012-03-20T16:25:54Z</time>
      </trkpt>
      <trkpt lat="43.37381" lon="-0.48435">
        <ele>171.25</ele>
        <time>2012-03-20T16:26:07Z</time>
      </trkpt>
      <trkpt lat="43.37369" lon="-0.48425">
        <ele>170.29</ele>
        <time>2012-03-20T16:26:19Z</time>
      </trkpt>
      <trkpt lat="43.37362" lon="-0.48424">
        <ele>169.81</ele>
        <time>2012-03-20T16:27:57Z</time>
      </trkpt>
    </trkseg>
  </trk>
</gpx>